PWSweather.com
Personal Weather Stations
Station Observations
OZIERI
Punta Idda, OzieriIT

Punta IddaOzieriIT

Lat: 40.584142, Lon: 9.007657999999992

Elevation: 1483

Station Type: Lacrosse ws2350

www.ozierimeteo.altervista.com

High Low Average
Temperature 91.2°F32.9°F 65.1°F18.4°F 76.8°F24.9°F
Dew Point 55.0°F12.8°F 38.1°F3.4°F 47.2°F8.4°F
Winds 6.5 mph NW10.5 mph NW 0.2 mph 0.3 mph 2.6 mph 4.2 mph
Wind Gusts 17.2 mph27.7 mph -- 4.4 mph7.1 mph
Humidity 52% 16% 37%
Pressure 30.16 in1021.30 in 30.06 in1017.90 in -
Precipitation 0.00 in0.00 in - -
Hour Temp Dew Point Humidity Winds Wind Gusts Pressure Precip Precip Rate Daily Precip Total
12:00 AM 70.0°F21.1°C 45.1°F7.3°C 41% 5.4 mph ESE8.7 kmh ESE 6.0 mph9.7 kmh 30.09 in1019.0 mb 0.00 in0.0 mm 0.00 in0.0 mm 0.00 in0.0 mm
12:02 AM 69.8°F21.0°C 45.0°F7.2°C 41% 5.1 mph SE8.2 kmh SE 5.8 mph9.3 kmh 30.09 in1019.0 mb 0.00 in0.0 mm 0.00 in0.0 mm 0.00 in0.0 mm
12:04 AM 69.6°F20.9°C 45.5°F7.5°C 42% 5.4 mph ESE8.7 kmh ESE 6.5 mph10.5 kmh 30.09 in1019.0 mb 0.00 in0.0 mm 0.00 in0.0 mm 0.00 in0.0 mm
12:07 AM 69.6°F20.9°C 45.5°F7.5°C 42% 5.1 mph ESE8.2 kmh ESE 6.0 mph9.7 kmh 30.09 in1019.0 mb 0.00 in0.0 mm 0.00 in0.0 mm 0.00 in0.0 mm
12:09 AM 69.4°F20.8°C 45.3°F7.4°C 42% 5.6 mph SE9.0 kmh SE 6.7 mph10.8 kmh 30.09 in1019.0 mb 0.00 in0.0 mm 0.00 in0.0 mm 0.00 in0.0 mm
12:11 AM 69.4°F20.8°C 45.3°F7.4°C 42% 5.8 mph SE9.3 kmh SE 6.7 mph10.8 kmh 30.08 in1018.6 mb 0.00 in0.0 mm 0.00 in0.0 mm 0.00 in0.0 mm
12:13 AM 69.4°F20.8°C 46.0°F7.8°C 43% 5.6 mph SE9.0 kmh SE 6.5 mph10.5 kmh 30.08 in1018.6 mb 0.00 in0.0 mm 0.00 in0.0 mm 0.00 in0.0 mm
12:15 AM 69.4°F20.8°C 45.3°F7.4°C 42% 5.4 mph SE8.7 kmh SE 6.0 mph9.7 kmh 30.08 in1018.6 mb 0.00 in0.0 mm 0.00 in0.0 mm 0.00 in0.0 mm
12:17 AM 69.3°F20.7°C 45.1°F7.3°C 42% 4.9 mph E7.9 kmh E 5.8 mph9.3 kmh 30.08 in1018.6 mb 0.00 in0.0 mm 0.00 in0.0 mm 0.00 in0.0 mm
12:19 AM 69.4°F20.8°C 45.3°F7.4°C 42% 4.9 mph ESE7.9 kmh ESE 5.6 mph9.0 kmh 30.08 in1018.6 mb 0.00 in0.0 mm 0.00 in0.0 mm 0.00 in0.0 mm
12:22 AM 69.4°F20.8°C 45.3°F7.4°C 42% 5.1 mph ESE8.2 kmh ESE 6.0 mph9.7 kmh 30.08 in1018.6 mb 0.00 in0.0 mm 0.00 in0.0 mm 0.00 in0.0 mm
12:24 AM 69.4°F20.8°C 45.3°F7.4°C 42% 5.1 mph ESE8.2 kmh ESE 6.9 mph11.1 kmh 30.08 in1018.6 mb 0.00 in0.0 mm 0.00 in0.0 mm 0.00 in0.0 mm
12:26 AM 69.4°F20.8°C 45.3°F7.4°C 42% 4.9 mph SE7.9 kmh SE 5.8 mph9.3 kmh 30.08 in1018.6 mb 0.00 in0.0 mm 0.00 in0.0 mm 0.00 in0.0 mm
12:28 AM 69.6°F20.9°C 45.5°F7.5°C 42% 5.1 mph SE8.2 kmh SE 5.8 mph9.3 kmh 30.08 in1018.6 mb 0.00 in0.0 mm 0.00 in0.0 mm 0.00 in0.0 mm
12:30 AM 69.4°F20.8°C 45.3°F7.4°C 42% 5.4 mph ESE8.7 kmh ESE 7.4 mph11.9 kmh 30.07 in1018.3 mb 0.00 in0.0 mm 0.00 in0.0 mm 0.00 in0.0 mm
12:33 AM 69.4°F20.8°C 45.3°F7.4°C 42% 5.1 mph SE8.2 kmh SE 6.3 mph10.1 kmh 30.08 in1018.6 mb 0.00 in0.0 mm 0.00 in0.0 mm 0.00 in0.0 mm
12:35 AM 69.3°F20.7°C 45.9°F7.7°C 43% 5.4 mph ESE8.7 kmh ESE 6.0 mph9.7 kmh 30.08 in1018.6 mb 0.00 in0.0 mm 0.00 in0.0 mm 0.00 in0.0 mm
12:37 AM 69.1°F20.6°C 45.7°F7.6°C 43% 5.6 mph SE9.0 kmh SE 6.5 mph10.5 kmh 30.08 in1018.6 mb 0.00 in0.0 mm 0.00 in0.0 mm 0.00 in0.0 mm
12:39 AM 68.9°F20.5°C 45.5°F7.5°C 43% 5.6 mph ESE9.0 kmh ESE 6.9 mph11.1 kmh 30.08 in1018.6 mb 0.00 in0.0 mm 0.00 in0.0 mm 0.00 in0.0 mm
12:41 AM 68.9°F20.5°C 45.5°F7.5°C 43% 6.0 mph SE9.7 kmh SE 6.5 mph10.5 kmh 30.08 in1018.6 mb 0.00 in0.0 mm 0.00 in0.0 mm 0.00 in0.0 mm
12:43 AM 68.7°F20.4°C 45.3°F7.4°C 43% 6.3 mph SE10.1 kmh SE 7.4 mph11.9 kmh 30.08 in1018.6 mb 0.00 in0.0 mm 0.00 in0.0 mm 0.00 in0.0 mm
12:45 AM 68.7°F20.4°C 45.3°F7.4°C 43% 5.8 mph SE9.3 kmh SE 6.9 mph11.1 kmh 30.08 in1018.6 mb 0.00 in0.0 mm 0.00 in0.0 mm 0.00 in0.0 mm
12:48 AM 68.7°F20.4°C 45.3°F7.4°C 43% 4.5 mph SE7.2 kmh SE 4.3 mph6.9 kmh 30.08 in1018.6 mb 0.00 in0.0 mm 0.00 in0.0 mm 0.00 in0.0 mm
12:50 AM 68.7°F20.4°C 44.8°F7.1°C 42% 4.5 mph SE7.2 kmh SE 5.6 mph9.0 kmh 30.08 in1018.6 mb 0.00 in0.0 mm 0.00 in0.0 mm 0.00 in0.0 mm
12:52 AM 68.9°F20.5°C 44.8°F7.1°C 42% 4.7 mph SSE7.6 kmh SSE 5.8 mph9.3 kmh 30.08 in1018.6 mb 0.00 in0.0 mm 0.00 in0.0 mm 0.00 in0.0 mm
12:54 AM 69.1°F20.6°C 44.4°F6.9°C 41% 4.7 mph SE7.6 kmh SE 5.4 mph8.7 kmh 30.08 in1018.6 mb 0.00 in0.0 mm 0.00 in0.0 mm 0.00 in0.0 mm
12:57 AM 69.3°F20.7°C 44.6°F7.0°C 41% 4.5 mph ESE7.2 kmh ESE 4.7 mph7.6 kmh 30.08 in1018.6 mb 0.00 in0.0 mm 0.00 in0.0 mm 0.00 in0.0 mm
12:59 AM 69.1°F20.6°C 44.4°F6.9°C 41% 4.3 mph ESE6.9 kmh ESE 4.7 mph7.6 kmh 30.07 in1018.3 mb 0.00 in0.0 mm 0.00 in0.0 mm 0.00 in0.0 mm
01:01 AM 69.1°F20.6°C 44.4°F6.9°C 41% 4.3 mph SE6.9 kmh SE 5.1 mph8.2 kmh 30.08 in1018.6 mb 0.00 in0.0 mm 0.00 in0.0 mm 0.00 in0.0 mm
01:03 AM 69.1°F20.6°C 43.7°F6.5°C 40% 4.5 mph ESE7.2 kmh ESE 5.1 mph8.2 kmh 30.07 in1018.3 mb 0.00 in0.0 mm 0.00 in0.0 mm 0.00 in0.0 mm
01:05 AM 69.3°F20.7°C 43.9°F6.6°C 40% 4.3 mph ESE6.9 kmh ESE 4.7 mph7.6 kmh 30.07 in1018.3 mb 0.00 in0.0 mm 0.00 in0.0 mm 0.00 in0.0 mm
01:08 AM 69.3°F20.7°C 43.9°F6.6°C 40% 4.0 mph ESE6.4 kmh ESE 4.5 mph7.2 kmh 30.08 in1018.6 mb 0.00 in0.0 mm 0.00 in0.0 mm 0.00 in0.0 mm
01:10 AM 69.1°F20.6°C 43.7°F6.5°C 40% 3.8 mph SE6.1 kmh SE 3.8 mph6.1 kmh 30.08 in1018.6 mb 0.00 in0.0 mm 0.00 in0.0 mm 0.00 in0.0 mm
01:12 AM 69.3°F20.7°C 43.2°F6.2°C 39% 2.9 mph SSE4.7 kmh SSE 3.4 mph5.5 kmh 30.08 in1018.6 mb 0.00 in0.0 mm 0.00 in0.0 mm 0.00 in0.0 mm
01:14 AM 69.1°F20.6°C 42.4°F5.8°C 38% 2.0 mph S3.2 kmh S 2.0 mph3.2 kmh 30.08 in1018.6 mb 0.00 in0.0 mm 0.00 in0.0 mm 0.00 in0.0 mm
01:16 AM 69.1°F20.6°C 42.4°F5.8°C 38% 1.6 mph SSE2.6 kmh SSE 1.8 mph2.9 kmh 30.08 in1018.6 mb 0.00 in0.0 mm 0.00 in0.0 mm 0.00 in0.0 mm
01:19 AM 68.9°F20.5°C 41.5°F5.3°C 37% 1.6 mph SE2.6 kmh SE 2.2 mph3.5 kmh 30.08 in1018.6 mb 0.00 in0.0 mm 0.00 in0.0 mm 0.00 in0.0 mm
01:21 AM 68.7°F20.4°C 42.1°F5.6°C 38% 1.8 mph SSE2.9 kmh SSE 2.9 mph4.7 kmh 30.07 in1018.3 mb 0.00 in0.0 mm 0.00 in0.0 mm 0.00 in0.0 mm
01:23 AM 68.7°F20.4°C 42.1°F5.6°C 38% 1.8 mph SE2.9 kmh SE 2.5 mph4.0 kmh 30.08 in1018.6 mb 0.00 in0.0 mm 0.00 in0.0 mm 0.00 in0.0 mm
01:25 AM 68.5°F20.3°C 41.9°F5.5°C 38% 2.2 mph ESE3.5 kmh ESE 2.7 mph4.3 kmh 30.07 in1018.3 mb 0.00 in0.0 mm 0.00 in0.0 mm 0.00 in0.0 mm
01:28 AM 68.5°F20.3°C 41.9°F5.5°C 38% 2.9 mph SSE4.7 kmh SSE 4.9 mph7.9 kmh 30.07 in1018.3 mb 0.00 in0.0 mm 0.00 in0.0 mm 0.00 in0.0 mm
01:30 AM 68.4°F20.2°C 41.7°F5.4°C 38% 3.6 mph SE5.8 kmh SE 4.7 mph7.6 kmh 30.08 in1018.6 mb 0.00 in0.0 mm 0.00 in0.0 mm 0.00 in0.0 mm
01:32 AM 68.4°F20.2°C 41.7°F5.4°C 38% 4.0 mph SE6.4 kmh SE 5.1 mph8.2 kmh 30.07 in1018.3 mb 0.00 in0.0 mm 0.00 in0.0 mm 0.00 in0.0 mm
01:34 AM 68.4°F20.2°C 41.7°F5.4°C 38% 4.0 mph SE6.4 kmh SE 4.5 mph7.2 kmh 30.08 in1018.6 mb 0.00 in0.0 mm 0.00 in0.0 mm 0.00 in0.0 mm
01:36 AM 68.4°F20.2°C 41.7°F5.4°C 38% 3.6 mph SE5.8 kmh SE 4.7 mph7.6 kmh 30.07 in1018.3 mb 0.00 in0.0 mm 0.00 in0.0 mm 0.00 in0.0 mm
01:38 AM 68.4°F20.2°C 41.7°F5.4°C 38% 3.4 mph ESE5.5 kmh ESE 4.3 mph6.9 kmh 30.07 in1018.3 mb 0.00 in0.0 mm 0.00 in0.0 mm 0.00 in0.0 mm
01:40 AM 68.2°F20.1°C 41.5°F5.3°C 38% 3.1 mph SE5.0 kmh SE 3.6 mph5.8 kmh 30.07 in1018.3 mb 0.00 in0.0 mm 0.00 in0.0 mm 0.00 in0.0 mm
01:43 AM 68.0°F20.0°C 41.4°F5.2°C 38% 3.1 mph SE5.0 kmh SE 5.8 mph9.3 kmh 30.07 in1018.3 mb 0.00 in0.0 mm 0.00 in0.0 mm 0.00 in0.0 mm
01:45 AM 67.8°F19.9°C 41.4°F5.2°C 38% 3.1 mph ESE5.0 kmh ESE 3.8 mph6.1 kmh 30.07 in1018.3 mb 0.00 in0.0 mm 0.00 in0.0 mm 0.00 in0.0 mm
01:47 AM 67.8°F19.9°C 41.4°F5.2°C 38% 2.5 mph SSE4.0 kmh SSE 4.5 mph7.2 kmh 30.07 in1018.3 mb 0.00 in0.0 mm 0.00 in0.0 mm 0.00 in0.0 mm
01:49 AM 67.8°F19.9°C 41.4°F5.2°C 38% 2.0 mph SE3.2 kmh SE 2.5 mph4.0 kmh 30.07 in1018.3 mb 0.00 in0.0 mm 0.00 in0.0 mm 0.00 in0.0 mm
01:52 AM 67.8°F19.9°C 41.4°F5.2°C 38% 2.5 mph SE4.0 kmh SE 3.8 mph6.1 kmh 30.07 in1018.3 mb 0.00 in0.0 mm 0.00 in0.0 mm 0.00 in0.0 mm
01:54 AM 67.8°F19.9°C 41.4°F5.2°C 38% 2.5 mph SSE4.0 kmh SSE 3.6 mph5.8 kmh 30.07 in1018.3 mb 0.00 in0.0 mm 0.00 in0.0 mm 0.00 in0.0 mm
01:56 AM 67.8°F19.9°C 41.4°F5.2°C 38% 2.5 mph SSE4.0 kmh SSE 2.9 mph4.7 kmh 30.07 in1018.3 mb 0.00 in0.0 mm 0.00 in0.0 mm 0.00 in0.0 mm
01:58 AM 67.8°F19.9°C 41.4°F5.2°C 38% 2.2 mph SSE3.5 kmh SSE 2.7 mph4.3 kmh 30.07 in1018.3 mb 0.00 in0.0 mm 0.00 in0.0 mm 0.00 in0.0 mm
02:06 AM 68.2°F20.1°C 41.5°F5.3°C 38% 2.2 mph S3.5 kmh S -- 30.07 in1018.3 mb 0.00 in0.0 mm 0.00 in0.0 mm 0.00 in0.0 mm
02:09 AM 68.0°F20.0°C 41.4°F5.2°C 38% 1.3 mph SSE2.1 kmh SSE 4.0 mph6.4 kmh 30.07 in1018.3 mb 0.00 in0.0 mm 0.00 in0.0 mm 0.00 in0.0 mm
02:11 AM 67.8°F19.9°C 41.4°F5.2°C 38% 1.6 mph SSE2.6 kmh SSE 2.5 mph4.0 kmh 30.07 in1018.3 mb 0.00 in0.0 mm 0.00 in0.0 mm 0.00 in0.0 mm
02:13 AM 67.8°F19.9°C 41.4°F5.2°C 38% 1.8 mph SSE2.9 kmh SSE 2.9 mph4.7 kmh 30.07 in1018.3 mb 0.00 in0.0 mm 0.00 in0.0 mm 0.00 in0.0 mm
02:15 AM 67.8°F19.9°C 41.4°F5.2°C 38% 1.8 mph SSE2.9 kmh SSE 2.5 mph4.0 kmh 30.07 in1018.3 mb 0.00 in0.0 mm 0.00 in0.0 mm 0.00 in0.0 mm
02:17 AM 67.8°F19.9°C 41.4°F5.2°C 38% 2.5 mph ESE4.0 kmh ESE 4.0 mph6.4 kmh 30.07 in1018.3 mb 0.00 in0.0 mm 0.00 in0.0 mm 0.00 in0.0 mm
02:20 AM 67.8°F19.9°C 41.4°F5.2°C 38% 2.5 mph SSE4.0 kmh SSE 3.6 mph5.8 kmh 30.07 in1018.3 mb 0.00 in0.0 mm 0.00 in0.0 mm 0.00 in0.0 mm
02:22 AM 67.8°F19.9°C 41.4°F5.2°C 38% 2.5 mph SE4.0 kmh SE 3.4 mph5.5 kmh 30.07 in1018.3 mb 0.00 in0.0 mm 0.00 in0.0 mm 0.00 in0.0 mm
02:24 AM 67.8°F19.9°C 41.4°F5.2°C 38% 2.5 mph SSE4.0 kmh SSE 2.7 mph4.3 kmh 30.07 in1018.3 mb 0.00 in0.0 mm 0.00 in0.0 mm 0.00 in0.0 mm
02:26 AM 67.8°F19.9°C 41.4°F5.2°C 38% 2.5 mph SSE4.0 kmh SSE 2.9 mph4.7 kmh 30.07 in1018.3 mb 0.00 in0.0 mm 0.00 in0.0 mm 0.00 in0.0 mm
02:28 AM 67.8°F19.9°C 41.4°F5.2°C 38% 2.2 mph SSE3.5 kmh SSE 2.5 mph4.0 kmh 30.07 in1018.3 mb 0.00 in0.0 mm 0.00 in0.0 mm 0.00 in0.0 mm
02:31 AM 67.8°F19.9°C 41.4°F5.2°C 38% 2.7 mph ESE4.3 kmh ESE 3.8 mph6.1 kmh 30.07 in1018.3 mb 0.00 in0.0 mm 0.00 in0.0 mm 0.00 in0.0 mm
02:33 AM 67.8°F19.9°C 40.6°F4.8°C 37% 2.5 mph S4.0 kmh S 3.1 mph5.0 kmh 30.07 in1018.3 mb 0.00 in0.0 mm 0.00 in0.0 mm 0.00 in0.0 mm
02:35 AM 67.8°F19.9°C 40.6°F4.8°C 37% 2.9 mph S4.7 kmh S 4.3 mph6.9 kmh 30.07 in1018.3 mb 0.00 in0.0 mm 0.00 in0.0 mm 0.00 in0.0 mm
02:37 AM 67.8°F19.9°C 40.6°F4.8°C 37% 2.7 mph SSE4.3 kmh SSE 3.1 mph5.0 kmh 30.07 in1018.3 mb 0.00 in0.0 mm 0.00 in0.0 mm 0.00 in0.0 mm
02:39 AM 68.0°F20.0°C 40.8°F4.9°C 37% 2.5 mph SE4.0 kmh SE 3.1 mph5.0 kmh 30.07 in1018.3 mb 0.00 in0.0 mm 0.00 in0.0 mm 0.00 in0.0 mm
02:42 AM 67.8°F19.9°C 40.6°F4.8°C 37% 2.5 mph SE4.0 kmh SE 2.9 mph4.7 kmh 30.07 in1018.3 mb 0.00 in0.0 mm 0.00 in0.0 mm 0.00 in0.0 mm
02:44 AM 67.8°F19.9°C 40.6°F4.8°C 37% 2.2 mph SSE3.5 kmh SSE 2.0 mph3.2 kmh 30.07 in1018.3 mb 0.00 in0.0 mm 0.00 in0.0 mm 0.00 in0.0 mm
02:46 AM 67.8°F19.9°C 40.6°F4.8°C 37% 2.0 mph SE3.2 kmh SE 2.2 mph3.5 kmh 30.07 in1018.3 mb 0.00 in0.0 mm 0.00 in0.0 mm 0.00 in0.0 mm
02:48 AM 67.8°F19.9°C 40.6°F4.8°C 37% 2.5 mph ESE4.0 kmh ESE 3.8 mph6.1 kmh 30.07 in1018.3 mb 0.00 in0.0 mm 0.00 in0.0 mm 0.00 in0.0 mm
02:50 AM 67.6°F19.8°C 41.2°F5.1°C 38% 2.7 mph SE4.3 kmh SE 3.1 mph5.0 kmh 30.06 in1017.9 mb 0.00 in0.0 mm 0.00 in0.0 mm 0.00 in0.0 mm
02:52 AM 67.5°F19.7°C 41.0°F5.0°C 38% 2.7 mph ESE4.3 kmh ESE 3.1 mph5.0 kmh 30.07 in1018.3 mb 0.00 in0.0 mm 0.00 in0.0 mm 0.00 in0.0 mm
02:54 AM 67.3°F19.6°C 40.8°F4.9°C 38% 2.9 mph SE4.7 kmh SE 4.5 mph7.2 kmh 30.06 in1017.9 mb 0.00 in0.0 mm 0.00 in0.0 mm 0.00 in0.0 mm
02:57 AM 67.3°F19.6°C 40.8°F4.9°C 38% 3.4 mph SE5.5 kmh SE 4.7 mph7.6 kmh 30.07 in1018.3 mb 0.00 in0.0 mm 0.00 in0.0 mm 0.00 in0.0 mm
02:59 AM 67.3°F19.6°C 40.8°F4.9°C 38% 3.1 mph SSE5.0 kmh SSE 4.3 mph6.9 kmh 30.06 in1017.9 mb 0.00 in0.0 mm 0.00 in0.0 mm 0.00 in0.0 mm
03:01 AM 67.3°F19.6°C 40.8°F4.9°C 38% 2.9 mph ESE4.7 kmh ESE 3.4 mph5.5 kmh 30.07 in1018.3 mb 0.00 in0.0 mm 0.00 in0.0 mm 0.00 in0.0 mm
03:03 AM 67.3°F19.6°C 40.8°F4.9°C 38% 2.2 mph ESE3.5 kmh ESE 2.0 mph3.2 kmh 30.07 in1018.3 mb 0.00 in0.0 mm 0.00 in0.0 mm 0.00 in0.0 mm
03:05 AM 67.1°F19.5°C 40.6°F4.8°C 38% 2.0 mph SSE3.2 kmh SSE 2.5 mph4.0 kmh 30.07 in1018.3 mb 0.00 in0.0 mm 0.00 in0.0 mm 0.00 in0.0 mm
03:07 AM 67.3°F19.6°C 40.8°F4.9°C 38% 1.8 mph SSE2.9 kmh SSE 2.0 mph3.2 kmh 30.07 in1018.3 mb 0.00 in0.0 mm 0.00 in0.0 mm 0.00 in0.0 mm
03:10 AM 67.3°F19.6°C 40.8°F4.9°C 38% 1.8 mph SE2.9 kmh SE 2.2 mph3.5 kmh 30.07 in1018.3 mb 0.00 in0.0 mm 0.00 in0.0 mm 0.00 in0.0 mm
03:12 AM 67.5°F19.7°C 40.3°F4.6°C 37% 2.0 mph SE3.2 kmh SE 3.4 mph5.5 kmh 30.07 in1018.3 mb 0.00 in0.0 mm 0.00 in0.0 mm 0.00 in0.0 mm
03:14 AM 67.5°F19.7°C 40.3°F4.6°C 37% 2.5 mph SE4.0 kmh SE 3.8 mph6.1 kmh 30.07 in1018.3 mb 0.00 in0.0 mm 0.00 in0.0 mm 0.00 in0.0 mm
03:16 AM 67.3°F19.6°C 40.1°F4.5°C 37% 2.9 mph ESE4.7 kmh ESE 3.8 mph6.1 kmh 30.07 in1018.3 mb 0.00 in0.0 mm 0.00 in0.0 mm 0.00 in0.0 mm
03:18 AM 67.3°F19.6°C 40.1°F4.5°C 37% 3.1 mph SSE5.0 kmh SSE 4.7 mph7.6 kmh 30.07 in1018.3 mb 0.00 in0.0 mm 0.00 in0.0 mm 0.00 in0.0 mm
03:20 AM 67.1°F19.5°C 40.6°F4.8°C 38% 3.1 mph ESE5.0 kmh ESE 4.5 mph7.2 kmh 30.07 in1018.3 mb 0.00 in0.0 mm 0.00 in0.0 mm 0.00 in0.0 mm
03:23 AM 67.1°F19.5°C 40.6°F4.8°C 38% 3.6 mph SE5.8 kmh SE 4.3 mph6.9 kmh 30.07 in1018.3 mb 0.00 in0.0 mm 0.00 in0.0 mm 0.00 in0.0 mm
03:25 AM 67.1°F19.5°C 40.6°F4.8°C 38% 3.6 mph SE5.8 kmh SE 4.5 mph7.2 kmh 30.07 in1018.3 mb 0.00 in0.0 mm 0.00 in0.0 mm 0.00 in0.0 mm
03:27 AM 67.3°F19.6°C 40.1°F4.5°C 37% 3.1 mph SE5.0 kmh SE 3.8 mph6.1 kmh 30.07 in1018.3 mb 0.00 in0.0 mm 0.00 in0.0 mm 0.00 in0.0 mm
03:29 AM 67.3°F19.6°C 40.1°F4.5°C 37% 3.6 mph ESE5.8 kmh ESE 5.1 mph8.2 kmh 30.07 in1018.3 mb 0.00 in0.0 mm 0.00 in0.0 mm 0.00 in0.0 mm
03:31 AM 67.1°F19.5°C 39.9°F4.4°C 37% 4.0 mph ESE6.4 kmh ESE 5.1 mph8.2 kmh 30.07 in1018.3 mb 0.00 in0.0 mm 0.00 in0.0 mm 0.00 in0.0 mm
03:34 AM 66.9°F19.4°C 39.7°F4.3°C 37% 3.6 mph ESE5.8 kmh ESE 4.7 mph7.6 kmh 30.07 in1018.3 mb 0.00 in0.0 mm 0.00 in0.0 mm 0.00 in0.0 mm
03:36 AM 66.7°F19.3°C 40.3°F4.6°C 38% 3.8 mph SSE6.1 kmh SSE 4.9 mph7.9 kmh 30.07 in1018.3 mb 0.00 in0.0 mm 0.00 in0.0 mm 0.00 in0.0 mm
03:38 AM 66.7°F19.3°C 41.0°F5.0°C 39% 3.8 mph ESE6.1 kmh ESE 4.7 mph7.6 kmh 30.07 in1018.3 mb 0.00 in0.0 mm 0.00 in0.0 mm 0.00 in0.0 mm
03:40 AM 66.7°F19.3°C 41.7°F5.4°C 40% 4.3 mph ESE6.9 kmh ESE 5.8 mph9.3 kmh 30.07 in1018.3 mb 0.00 in0.0 mm 0.00 in0.0 mm 0.00 in0.0 mm
03:42 AM 66.6°F19.2°C 42.1°F5.6°C 41% 4.5 mph ESE7.2 kmh ESE 5.8 mph9.3 kmh 30.07 in1018.3 mb 0.00 in0.0 mm 0.00 in0.0 mm 0.00 in0.0 mm
03:45 AM 66.4°F19.1°C 42.6°F5.9°C 42% 3.8 mph SSE6.1 kmh SSE 3.8 mph6.1 kmh 30.07 in1018.3 mb 0.00 in0.0 mm 0.00 in0.0 mm 0.00 in0.0 mm
03:47 AM 66.0°F18.9°C 42.3°F5.7°C 42% 3.1 mph SE5.0 kmh SE 2.9 mph4.7 kmh 30.07 in1018.3 mb 0.00 in0.0 mm 0.00 in0.0 mm 0.00 in0.0 mm
03:49 AM 66.0°F18.9°C 42.8°F6.0°C 43% 2.9 mph S4.7 kmh S 3.8 mph6.1 kmh 30.07 in1018.3 mb 0.00 in0.0 mm 0.00 in0.0 mm 0.00 in0.0 mm
03:51 AM 66.0°F18.9°C 42.8°F6.0°C 43% 2.9 mph ESE4.7 kmh ESE 4.0 mph6.4 kmh 30.07 in1018.3 mb 0.00 in0.0 mm 0.00 in0.0 mm 0.00 in0.0 mm
03:53 AM 66.0°F18.9°C 43.5°F6.4°C 44% 3.1 mph SE5.0 kmh SE 4.0 mph6.4 kmh 30.07 in1018.3 mb 0.00 in0.0 mm 0.00 in0.0 mm 0.00 in0.0 mm
03:56 AM 66.0°F18.9°C 43.5°F6.4°C 44% 3.4 mph SSE5.5 kmh SSE 4.5 mph7.2 kmh 30.07 in1018.3 mb 0.00 in0.0 mm 0.00 in0.0 mm 0.00 in0.0 mm
03:58 AM 66.2°F19.0°C 43.7°F6.5°C 44% 3.1 mph SE5.0 kmh SE 3.4 mph5.5 kmh 30.07 in1018.3 mb 0.00 in0.0 mm 0.00 in0.0 mm 0.00 in0.0 mm
04:00 AM 66.2°F19.0°C 43.7°F6.5°C 44% 3.1 mph ESE5.0 kmh ESE 3.8 mph6.1 kmh 30.07 in1018.3 mb 0.00 in0.0 mm 0.00 in0.0 mm 0.00 in0.0 mm
04:02 AM 66.2°F19.0°C 43.7°F6.5°C 44% 3.1 mph SSE5.0 kmh SSE 4.3 mph6.9 kmh 30.06 in1017.9 mb 0.00 in0.0 mm 0.00 in0.0 mm 0.00 in0.0 mm
04:04 AM 66.2°F19.0°C 43.7°F6.5°C 44% 2.7 mph SSE4.3 kmh SSE 3.1 mph5.0 kmh 30.06 in1017.9 mb 0.00 in0.0 mm 0.00 in0.0 mm 0.00 in0.0 mm
04:06 AM 66.4°F19.1°C 43.9°F6.6°C 44% 2.9 mph SE4.7 kmh SE 5.1 mph8.2 kmh 30.06 in1017.9 mb 0.00 in0.0 mm 0.00 in0.0 mm 0.00 in0.0 mm
04:09 AM 66.4°F19.1°C 43.9°F6.6°C 44% 2.7 mph SE4.3 kmh SE 3.8 mph6.1 kmh 30.07 in1018.3 mb 0.00 in0.0 mm 0.00 in0.0 mm 0.00 in0.0 mm
04:11 AM 66.4°F19.1°C 43.9°F6.6°C 44% 2.2 mph SSE3.5 kmh SSE 2.7 mph4.3 kmh 30.06 in1017.9 mb 0.00 in0.0 mm 0.00 in0.0 mm 0.00 in0.0 mm
04:13 AM 66.6°F19.2°C 44.1°F6.7°C 44% 1.8 mph SSE2.9 kmh SSE 2.2 mph3.5 kmh 30.06 in1017.9 mb 0.00 in0.0 mm 0.00 in0.0 mm 0.00 in0.0 mm
04:15 AM 66.4°F19.1°C 43.9°F6.6°C 44% 1.6 mph SSE2.6 kmh SSE 2.2 mph3.5 kmh 30.06 in1017.9 mb 0.00 in0.0 mm 0.00 in0.0 mm 0.00 in0.0 mm
04:17 AM 66.6°F19.2°C 44.1°F6.7°C 44% 2.0 mph SSE3.2 kmh SSE 3.6 mph5.8 kmh 30.07 in1018.3 mb 0.00 in0.0 mm 0.00 in0.0 mm 0.00 in0.0 mm
04:20 AM 66.7°F19.3°C 44.1°F6.7°C 44% 2.2 mph S3.5 kmh S 3.8 mph6.1 kmh 30.07 in1018.3 mb 0.00 in0.0 mm 0.00 in0.0 mm 0.00 in0.0 mm
04:22 AM 66.7°F19.3°C 43.5°F6.4°C 43% 1.6 mph SSE2.6 kmh SSE 2.2 mph3.5 kmh 30.07 in1018.3 mb 0.00 in0.0 mm 0.00 in0.0 mm 0.00 in0.0 mm
04:24 AM 66.6°F19.2°C 43.3°F6.3°C 43% 1.6 mph SSE2.6 kmh SSE 2.9 mph4.7 kmh 30.07 in1018.3 mb 0.00 in0.0 mm 0.00 in0.0 mm 0.00 in0.0 mm
04:26 AM 66.6°F19.2°C 42.8°F6.0°C 42% 2.0 mph ESE3.2 kmh ESE 4.7 mph7.6 kmh 30.07 in1018.3 mb 0.00 in0.0 mm 0.00 in0.0 mm 0.00 in0.0 mm
04:28 AM 66.2°F19.0°C 42.4°F5.8°C 42% 2.7 mph ESE4.3 kmh ESE 4.9 mph7.9 kmh 30.07 in1018.3 mb 0.00 in0.0 mm 0.00 in0.0 mm 0.00 in0.0 mm
04:30 AM 66.0°F18.9°C 41.7°F5.4°C 41% 3.8 mph ESE6.1 kmh ESE 7.2 mph11.6 kmh 30.07 in1018.3 mb 0.00 in0.0 mm 0.00 in0.0 mm 0.00 in0.0 mm
04:33 AM 65.7°F18.7°C 40.6°F4.8°C 40% 4.9 mph SE7.9 kmh SE 6.7 mph10.8 kmh 30.07 in1018.3 mb 0.00 in0.0 mm 0.00 in0.0 mm 0.00 in0.0 mm
04:35 AM 65.7°F18.7°C 40.6°F4.8°C 40% 5.1 mph ESE8.2 kmh ESE 6.7 mph10.8 kmh 30.07 in1018.3 mb 0.00 in0.0 mm 0.00 in0.0 mm 0.00 in0.0 mm
04:37 AM 65.5°F18.6°C 41.2°F5.1°C 41% 5.1 mph ESE8.2 kmh ESE 6.3 mph10.1 kmh 30.07 in1018.3 mb 0.00 in0.0 mm 0.00 in0.0 mm 0.00 in0.0 mm
04:39 AM 65.5°F18.6°C 41.2°F5.1°C 41% 4.7 mph SE7.6 kmh SE 5.8 mph9.3 kmh 30.07 in1018.3 mb 0.00 in0.0 mm 0.00 in0.0 mm 0.00 in0.0 mm
04:41 AM 65.3°F18.5°C 41.5°F5.3°C 42% 4.9 mph SE7.9 kmh SE 6.5 mph10.5 kmh 30.08 in1018.6 mb 0.00 in0.0 mm 0.00 in0.0 mm 0.00 in0.0 mm
04:44 AM 65.1°F18.4°C 41.5°F5.3°C 42% 4.5 mph SE7.2 kmh SE 6.0 mph9.7 kmh 30.08 in1018.6 mb 0.00 in0.0 mm 0.00 in0.0 mm 0.00 in0.0 mm
04:46 AM 65.1°F18.4°C 41.5°F5.3°C 42% 4.7 mph SE7.6 kmh SE 6.0 mph9.7 kmh 30.08 in1018.6 mb 0.00 in0.0 mm 0.00 in0.0 mm 0.00 in0.0 mm
04:48 AM 65.1°F18.4°C 42.1°F5.6°C 43% 5.1 mph SE8.2 kmh SE 7.2 mph11.6 kmh 30.07 in1018.3 mb 0.00 in0.0 mm 0.00 in0.0 mm 0.00 in0.0 mm
04:50 AM 65.3°F18.5°C 42.3°F5.7°C 43% 4.3 mph SSE6.9 kmh SSE 4.5 mph7.2 kmh 30.07 in1018.3 mb 0.00 in0.0 mm 0.00 in0.0 mm 0.00 in0.0 mm
04:52 AM 65.5°F18.6°C 43.0°F6.1°C 44% 3.6 mph SE5.8 kmh SE 4.0 mph6.4 kmh 30.07 in1018.3 mb 0.00 in0.0 mm 0.00 in0.0 mm 0.00 in0.0 mm
04:55 AM 65.5°F18.6°C 43.0°F6.1°C 44% 3.1 mph SE5.0 kmh SE 3.6 mph5.8 kmh 30.07 in1018.3 mb 0.00 in0.0 mm 0.00 in0.0 mm 0.00 in0.0 mm
04:57 AM 65.3°F18.5°C 42.8°F6.0°C 44% 2.9 mph SE4.7 kmh SE 4.0 mph6.4 kmh 30.08 in1018.6 mb 0.00 in0.0 mm 0.00 in0.0 mm 0.00 in0.0 mm
04:59 AM 65.1°F18.4°C 42.6°F5.9°C 44% 3.4 mph SSE5.5 kmh SSE 4.3 mph6.9 kmh 30.07 in1018.3 mb 0.00 in0.0 mm 0.00 in0.0 mm 0.00 in0.0 mm
05:01 AM 65.1°F18.4°C 42.6°F5.9°C 44% 3.1 mph SE5.0 kmh SE 3.6 mph5.8 kmh 30.08 in1018.6 mb 0.00 in0.0 mm 0.00 in0.0 mm 0.00 in0.0 mm
05:04 AM 65.1°F18.4°C 42.6°F5.9°C 44% 2.9 mph ESE4.7 kmh ESE 4.0 mph6.4 kmh 30.07 in1018.3 mb 0.00 in0.0 mm 0.00 in0.0 mm 0.00 in0.0 mm
05:06 AM 65.1°F18.4°C 42.6°F5.9°C 44% 2.9 mph S4.7 kmh S 3.6 mph5.8 kmh 30.08 in1018.6 mb 0.00 in0.0 mm 0.00 in0.0 mm 0.00 in0.0 mm
05:08 AM 65.3°F18.5°C 42.8°F6.0°C 44% 2.7 mph SE4.3 kmh SE 2.9 mph4.7 kmh 30.08 in1018.6 mb 0.00 in0.0 mm 0.00 in0.0 mm 0.00 in0.0 mm
05:10 AM 65.3°F18.5°C 42.8°F6.0°C 44% 3.1 mph ESE5.0 kmh ESE 4.5 mph7.2 kmh 30.08 in1018.6 mb 0.00 in0.0 mm 0.00 in0.0 mm 0.00 in0.0 mm
05:13 AM 65.3°F18.5°C 42.8°F6.0°C 44% 3.6 mph SE5.8 kmh SE 5.4 mph8.7 kmh 30.08 in1018.6 mb 0.00 in0.0 mm 0.00 in0.0 mm 0.00 in0.0 mm
05:15 AM 65.3°F18.5°C 42.8°F6.0°C 44% 3.6 mph ESE5.8 kmh ESE 5.6 mph9.0 kmh 30.08 in1018.6 mb 0.00 in0.0 mm 0.00 in0.0 mm 0.00 in0.0 mm
05:17 AM 65.3°F18.5°C 42.8°F6.0°C 44% 3.4 mph SE5.5 kmh SE 4.0 mph6.4 kmh 30.08 in1018.6 mb 0.00 in0.0 mm 0.00 in0.0 mm 0.00 in0.0 mm
05:19 AM 65.5°F18.6°C 43.0°F6.1°C 44% 3.1 mph SE5.0 kmh SE 3.4 mph5.5 kmh 30.08 in1018.6 mb 0.00 in0.0 mm 0.00 in0.0 mm 0.00 in0.0 mm
05:21 AM 65.8°F18.8°C 42.8°F6.0°C 43% 2.7 mph SSE4.3 kmh SSE 2.7 mph4.3 kmh 30.08 in1018.6 mb 0.00 in0.0 mm 0.00 in0.0 mm 0.00 in0.0 mm
05:23 AM 65.8°F18.8°C 42.8°F6.0°C 43% 2.9 mph ESE4.7 kmh ESE 3.4 mph5.5 kmh 30.08 in1018.6 mb 0.00 in0.0 mm 0.00 in0.0 mm 0.00 in0.0 mm
05:26 AM 66.0°F18.9°C 42.8°F6.0°C 43% 2.9 mph ESE4.7 kmh ESE 4.0 mph6.4 kmh 30.08 in1018.6 mb 0.00 in0.0 mm 0.00 in0.0 mm 0.00 in0.0 mm
05:28 AM 66.2°F19.0°C 42.4°F5.8°C 42% 3.6 mph ESE5.8 kmh ESE 5.1 mph8.2 kmh 30.08 in1018.6 mb 0.00 in0.0 mm 0.00 in0.0 mm 0.00 in0.0 mm
05:30 AM 66.4°F19.1°C 42.6°F5.9°C 42% 4.0 mph ESE6.4 kmh ESE 5.6 mph9.0 kmh 30.08 in1018.6 mb 0.00 in0.0 mm 0.00 in0.0 mm 0.00 in0.0 mm
05:32 AM 66.4°F19.1°C 42.6°F5.9°C 42% 4.3 mph SE6.9 kmh SE 5.4 mph8.7 kmh 30.08 in1018.6 mb 0.00 in0.0 mm 0.00 in0.0 mm 0.00 in0.0 mm
05:35 AM 66.0°F18.9°C 41.7°F5.4°C 41% 5.1 mph ESE8.2 kmh ESE 6.9 mph11.1 kmh 30.08 in1018.6 mb 0.00 in0.0 mm 0.00 in0.0 mm 0.00 in0.0 mm
05:37 AM 66.0°F18.9°C 41.7°F5.4°C 41% 5.1 mph SE8.2 kmh SE 6.3 mph10.1 kmh 30.08 in1018.6 mb 0.00 in0.0 mm 0.00 in0.0 mm 0.00 in0.0 mm
05:39 AM 66.0°F18.9°C 41.7°F5.4°C 41% 5.4 mph ESE8.7 kmh ESE 6.5 mph10.5 kmh 30.08 in1018.6 mb 0.00 in0.0 mm 0.00 in0.0 mm 0.00 in0.0 mm
05:41 AM 66.0°F18.9°C 41.7°F5.4°C 41% 5.6 mph SE9.0 kmh SE 8.3 mph13.4 kmh 30.08 in1018.6 mb 0.00 in0.0 mm 0.00 in0.0 mm 0.00 in0.0 mm
05:43 AM 65.8°F18.8°C 41.5°F5.3°C 41% 5.6 mph ESE9.0 kmh ESE 5.8 mph9.3 kmh 30.09 in1019.0 mb 0.00 in0.0 mm 0.00 in0.0 mm 0.00 in0.0 mm
05:46 AM 65.7°F18.7°C 41.9°F5.5°C 42% 5.1 mph SE8.2 kmh SE 5.8 mph9.3 kmh 30.09 in1019.0 mb 0.00 in0.0 mm 0.00 in0.0 mm 0.00 in0.0 mm
05:48 AM 65.8°F18.8°C 42.1°F5.6°C 42% 4.9 mph ESE7.9 kmh ESE 6.9 mph11.1 kmh 30.08 in1018.6 mb 0.00 in0.0 mm 0.00 in0.0 mm 0.00 in0.0 mm
05:50 AM 65.8°F18.8°C 41.5°F5.3°C 41% 4.9 mph SE7.9 kmh SE 6.9 mph11.1 kmh 30.08 in1018.6 mb 0.00 in0.0 mm 0.00 in0.0 mm 0.00 in0.0 mm
05:52 AM 65.8°F18.8°C 41.5°F5.3°C 41% 5.4 mph ESE8.7 kmh ESE 6.5 mph10.5 kmh 30.08 in1018.6 mb 0.00 in0.0 mm 0.00 in0.0 mm 0.00 in0.0 mm
05:54 AM 66.0°F18.9°C 42.3°F5.7°C 42% 4.9 mph ESE7.9 kmh ESE 6.5 mph10.5 kmh 30.08 in1018.6 mb 0.00 in0.0 mm 0.00 in0.0 mm 0.00 in0.0 mm
05:57 AM 66.0°F18.9°C 42.3°F5.7°C 42% 4.5 mph ESE7.2 kmh ESE 5.1 mph8.2 kmh 30.08 in1018.6 mb 0.00 in0.0 mm 0.00 in0.0 mm 0.00 in0.0 mm
05:59 AM 66.0°F18.9°C 42.3°F5.7°C 42% 4.0 mph ESE6.4 kmh ESE 4.3 mph6.9 kmh 30.09 in1019.0 mb 0.00 in0.0 mm 0.00 in0.0 mm 0.00 in0.0 mm
06:01 AM 66.4°F19.1°C 42.6°F5.9°C 42% 3.8 mph ESE6.1 kmh ESE 4.3 mph6.9 kmh 30.08 in1018.6 mb 0.00 in0.0 mm 0.00 in0.0 mm 0.00 in0.0 mm
06:03 AM 66.7°F19.3°C 43.5°F6.4°C 43% 3.6 mph ESE5.8 kmh ESE 4.5 mph7.2 kmh 30.09 in1019.0 mb 0.00 in0.0 mm 0.00 in0.0 mm 0.00 in0.0 mm
06:06 AM 66.9°F19.4°C 43.7°F6.5°C 43% 2.9 mph SE4.7 kmh SE 3.1 mph5.0 kmh 30.08 in1018.6 mb 0.00 in0.0 mm 0.00 in0.0 mm 0.00 in0.0 mm
06:08 AM 67.6°F19.8°C 44.4°F6.9°C 43% 2.5 mph SE4.0 kmh SE 2.5 mph4.0 kmh 30.08 in1018.6 mb 0.00 in0.0 mm 0.00 in0.0 mm 0.00 in0.0 mm
06:10 AM 67.8°F19.9°C 43.9°F6.6°C 42% 2.7 mph SE4.3 kmh SE 3.1 mph5.0 kmh 30.09 in1019.0 mb 0.00 in0.0 mm 0.00 in0.0 mm 0.00 in0.0 mm
06:12 AM 68.2°F20.1°C 44.2°F6.8°C 42% 2.7 mph SE4.3 kmh SE 2.9 mph4.7 kmh 30.09 in1019.0 mb 0.00 in0.0 mm 0.00 in0.0 mm 0.00 in0.0 mm
06:14 AM 68.5°F20.3°C 44.6°F7.0°C 42% 2.2 mph SE3.5 kmh SE 2.2 mph3.5 kmh 30.09 in1019.0 mb 0.00 in0.0 mm 0.00 in0.0 mm 0.00 in0.0 mm
06:16 AM 69.1°F20.6°C 45.0°F7.2°C 42% 1.3 mph SE2.1 kmh SE 1.3 mph2.1 kmh 30.09 in1019.0 mb 0.00 in0.0 mm 0.00 in0.0 mm 0.00 in0.0 mm
06:18 AM 69.4°F20.8°C 44.8°F7.1°C 41% 0.9 mph SE1.4 kmh SE -- 30.09 in1019.0 mb 0.00 in0.0 mm 0.00 in0.0 mm 0.00 in0.0 mm
06:21 AM 69.8°F21.0°C 45.0°F7.2°C 41% 0.4 mph SE0.6 kmh SE -- 30.09 in1019.0 mb 0.00 in0.0 mm 0.00 in0.0 mm 0.00 in0.0 mm
06:23 AM 70.0°F21.1°C 45.1°F7.3°C 41% 0.2 mph SE0.3 kmh SE -- 30.09 in1019.0 mb 0.00 in0.0 mm 0.00 in0.0 mm 0.00 in0.0 mm
06:25 AM 70.3°F21.3°C 45.0°F7.2°C 40% 0.2 mph SE0.3 kmh SE -- 30.09 in1019.0 mb 0.00 in0.0 mm 0.00 in0.0 mm 0.00 in0.0 mm
06:27 AM 70.7°F21.5°C 45.1°F7.3°C 40% 0.2 mph SE0.3 kmh SE -- 30.09 in1019.0 mb 0.00 in0.0 mm 0.00 in0.0 mm 0.00 in0.0 mm
06:29 AM 71.2°F21.8°C 45.7°F7.6°C 40% 0.2 mph SE0.3 kmh SE -- 30.09 in1019.0 mb 0.00 in0.0 mm 0.00 in0.0 mm 0.00 in0.0 mm
06:32 AM 71.2°F21.8°C 45.7°F7.6°C 40% 0.2 mph SE0.3 kmh SE -- 30.09 in1019.0 mb 0.00 in0.0 mm 0.00 in0.0 mm 0.00 in0.0 mm
06:34 AM 71.8°F22.1°C 46.2°F7.9°C 40% 0.2 mph SE0.3 kmh SE -- 30.09 in1019.0 mb 0.00 in0.0 mm 0.00 in0.0 mm 0.00 in0.0 mm
06:36 AM 71.8°F22.1°C 46.2°F7.9°C 40% 0.2 mph SE0.3 kmh SE -- 30.09 in1019.0 mb 0.00 in0.0 mm 0.00 in0.0 mm 0.00 in0.0 mm
06:38 AM 72.0°F22.2°C 46.4°F8.0°C 40% 0.2 mph ESE0.3 kmh ESE 0.7 mph1.1 kmh 30.09 in1019.0 mb 0.00 in0.0 mm 0.00 in0.0 mm 0.00 in0.0 mm
06:41 AM 72.0°F22.2°C 46.4°F8.0°C 40% 0.2 mph ESE0.3 kmh ESE 0.9 mph1.4 kmh 30.09 in1019.0 mb 0.00 in0.0 mm 0.00 in0.0 mm 0.00 in0.0 mm
06:43 AM 71.8°F22.1°C 46.2°F7.9°C 40% 0.2 mph 0.3 kmh 0.7 mph1.1 kmh 30.09 in1019.0 mb 0.00 in0.0 mm 0.00 in0.0 mm 0.00 in0.0 mm
06:45 AM 71.8°F22.1°C 46.8°F8.2°C 41% 0.2 mph 0.3 kmh -- 30.09 in1019.0 mb 0.00 in0.0 mm 0.00 in0.0 mm 0.00 in0.0 mm
06:47 AM 72.1°F22.3°C 47.1°F8.4°C 41% 0.2 mph NNE0.3 kmh NNE -- 30.09 in1019.0 mb 0.00 in0.0 mm 0.00 in0.0 mm 0.00 in0.0 mm
06:50 AM 72.1°F22.3°C 47.1°F8.4°C 41% 0.2 mph NNE0.3 kmh NNE 0.7 mph1.1 kmh 30.09 in1019.0 mb 0.00 in0.0 mm 0.00 in0.0 mm 0.00 in0.0 mm
06:52 AM 72.1°F22.3°C 47.1°F8.4°C 41% 0.2 mph NE0.3 kmh NE -- 30.09 in1019.0 mb 0.00 in0.0 mm 0.00 in0.0 mm 0.00 in0.0 mm
06:54 AM 72.1°F22.3°C 47.1°F8.4°C 41% 0.2 mph NNE0.3 kmh NNE -- 30.09 in1019.0 mb 0.00 in0.0 mm 0.00 in0.0 mm 0.00 in0.0 mm
06:56 AM 71.8°F22.1°C 46.8°F8.2°C 41% 0.2 mph NNE0.3 kmh NNE -- 30.09 in1019.0 mb 0.00 in0.0 mm 0.00 in0.0 mm 0.00 in0.0 mm
06:59 AM 71.8°F22.1°C 46.8°F8.2°C 41% 0.2 mph NNE0.3 kmh NNE -- 30.09 in1019.0 mb 0.00 in0.0 mm 0.00 in0.0 mm 0.00 in0.0 mm
07:01 AM 71.8°F22.1°C 46.8°F8.2°C 41% 0.2 mph NW0.3 kmh NW -- 30.09 in1019.0 mb 0.00 in0.0 mm 0.00 in0.0 mm 0.00 in0.0 mm
07:03 AM 72.0°F22.2°C 46.9°F8.3°C 41% 0.2 mph WNW0.3 kmh WNW -- 30.09 in1019.0 mb 0.00 in0.0 mm 0.00 in0.0 mm 0.00 in0.0 mm
07:05 AM 72.0°F22.2°C 46.9°F8.3°C 41% 0.2 mph NNW0.3 kmh NNW -- 30.10 in1019.3 mb 0.00 in0.0 mm 0.00 in0.0 mm 0.00 in0.0 mm
07:08 AM 71.8°F22.1°C 47.5°F8.6°C 42% 0.2 mph NNE0.3 kmh NNE 0.9 mph1.4 kmh 30.10 in1019.3 mb 0.00 in0.0 mm 0.00 in0.0 mm 0.00 in0.0 mm
07:10 AM 71.8°F22.1°C 47.5°F8.6°C 42% 0.2 mph NE0.3 kmh NE -- 30.10 in1019.3 mb 0.00 in0.0 mm 0.00 in0.0 mm 0.00 in0.0 mm
07:12 AM 71.8°F22.1°C 47.5°F8.6°C 42% 0.2 mph NNE0.3 kmh NNE -- 30.09 in1019.0 mb 0.00 in0.0 mm 0.00 in0.0 mm 0.00 in0.0 mm
07:14 AM 72.1°F22.3°C 47.8°F8.8°C 42% 0.2 mph ENE0.3 kmh ENE 0.9 mph1.4 kmh 30.09 in1019.0 mb 0.00 in0.0 mm 0.00 in0.0 mm 0.00 in0.0 mm
07:16 AM 72.3°F22.4°C 48.0°F8.9°C 42% 0.4 mph NE0.6 kmh NE 1.8 mph2.9 kmh 30.09 in1019.0 mb 0.00 in0.0 mm 0.00 in0.0 mm 0.00 in0.0 mm
07:19 AM 72.3°F22.4°C 48.0°F8.9°C 42% 0.4 mph ESE0.6 kmh ESE 0.9 mph1.4 kmh 30.09 in1019.0 mb 0.00 in0.0 mm 0.00 in0.0 mm 0.00 in0.0 mm
07:21 AM 72.3°F22.4°C 48.0°F8.9°C 42% 0.2 mph E0.3 kmh E -- 30.09 in1019.0 mb 0.00 in0.0 mm 0.00 in0.0 mm 0.00 in0.0 mm
07:23 AM 72.3°F22.4°C 47.3°F8.5°C 41% 0.4 mph NNE0.6 kmh NNE 1.3 mph2.1 kmh 30.09 in1019.0 mb 0.00 in0.0 mm 0.00 in0.0 mm 0.00 in0.0 mm
07:25 AM 72.3°F22.4°C 47.3°F8.5°C 41% 0.7 mph 1.1 kmh 1.3 mph2.1 kmh 30.09 in1019.0 mb 0.00 in0.0 mm 0.00 in0.0 mm 0.00 in0.0 mm
07:27 AM 72.1°F22.3°C 47.8°F8.8°C 42% 0.7 mph NNE1.1 kmh NNE 1.8 mph2.9 kmh 30.09 in1019.0 mb 0.00 in0.0 mm 0.00 in0.0 mm 0.00 in0.0 mm
07:30 AM 72.3°F22.4°C 48.0°F8.9°C 42% 0.4 mph NNE0.6 kmh NNE -- 30.10 in1019.3 mb 0.00 in0.0 mm 0.00 in0.0 mm 0.00 in0.0 mm
07:32 AM 72.5°F22.5°C 48.0°F8.9°C 42% 0.2 mph NNE0.3 kmh NNE -- 30.10 in1019.3 mb 0.00 in0.0 mm 0.00 in0.0 mm 0.00 in0.0 mm
07:34 AM 72.9°F22.7°C 48.4°F9.1°C 42% 0.2 mph NW0.3 kmh NW -- 30.10 in1019.3 mb 0.00 in0.0 mm 0.00 in0.0 mm 0.00 in0.0 mm
07:36 AM 73.2°F22.9°C 48.0°F8.9°C 41% 0.7 mph NNW1.1 kmh NNW 2.0 mph3.2 kmh 30.10 in1019.3 mb 0.00 in0.0 mm 0.00 in0.0 mm 0.00 in0.0 mm
07:38 AM 73.2°F22.9°C 48.0°F8.9°C 41% 0.4 mph NNW0.6 kmh NNW 1.3 mph2.1 kmh 30.10 in1019.3 mb 0.00 in0.0 mm 0.00 in0.0 mm 0.00 in0.0 mm
07:41 AM 73.0°F22.8°C 48.0°F8.9°C 41% 0.4 mph NNW0.6 kmh NNW 1.1 mph1.8 kmh 30.10 in1019.3 mb 0.00 in0.0 mm 0.00 in0.0 mm 0.00 in0.0 mm
07:43 AM 73.2°F22.9°C 48.0°F8.9°C 41% 0.2 mph NNW0.3 kmh NNW -- 30.10 in1019.3 mb 0.00 in0.0 mm 0.00 in0.0 mm 0.00 in0.0 mm
07:45 AM 73.2°F22.9°C 48.0°F8.9°C 41% 0.2 mph NNE0.3 kmh NNE 1.1 mph1.8 kmh 30.10 in1019.3 mb 0.00 in0.0 mm 0.00 in0.0 mm 0.00 in0.0 mm
07:47 AM 73.6°F23.1°C 48.4°F9.1°C 41% 0.2 mph ENE0.3 kmh ENE 0.7 mph1.1 kmh 30.10 in1019.3 mb 0.00 in0.0 mm 0.00 in0.0 mm 0.00 in0.0 mm
07:49 AM 73.8°F23.2°C 48.6°F9.2°C 41% 0.2 mph NNE0.3 kmh NNE 1.1 mph1.8 kmh 30.10 in1019.3 mb 0.00 in0.0 mm 0.00 in0.0 mm 0.00 in0.0 mm
07:52 AM 73.8°F23.2°C 48.6°F9.2°C 41% 0.7 mph 1.1 kmh 3.1 mph5.0 kmh 30.10 in1019.3 mb 0.00 in0.0 mm 0.00 in0.0 mm 0.00 in0.0 mm
07:54 AM 73.8°F23.2°C 48.6°F9.2°C 41% 0.7 mph 1.1 kmh 1.1 mph1.8 kmh 30.10 in1019.3 mb 0.00 in0.0 mm 0.00 in0.0 mm 0.00 in0.0 mm
07:56 AM 73.8°F23.2°C 48.6°F9.2°C 41% 0.7 mph NNW1.1 kmh NNW 2.0 mph3.2 kmh 30.10 in1019.3 mb 0.00 in0.0 mm 0.00 in0.0 mm 0.00 in0.0 mm
07:58 AM 73.8°F23.2°C 48.6°F9.2°C 41% 0.7 mph E1.1 kmh E 2.2 mph3.5 kmh 30.11 in1019.6 mb 0.00 in0.0 mm 0.00 in0.0 mm 0.00 in0.0 mm
08:00 AM 73.9°F23.3°C 49.5°F9.7°C 42% 0.4 mph 0.6 kmh 2.2 mph3.5 kmh 30.10 in1019.3 mb 0.00 in0.0 mm 0.00 in0.0 mm 0.00 in0.0 mm
08:03 AM 74.1°F23.4°C 48.9°F9.4°C 41% 0.4 mph ENE0.6 kmh ENE 0.9 mph1.4 kmh 30.10 in1019.3 mb 0.00 in0.0 mm 0.00 in0.0 mm 0.00 in0.0 mm
08:05 AM 74.5°F23.6°C 49.3°F9.6°C 41% 0.7 mph NNE1.1 kmh NNE 2.2 mph3.5 kmh 30.10 in1019.3 mb 0.00 in0.0 mm 0.00 in0.0 mm 0.00 in0.0 mm
08:07 AM 74.8°F23.8°C 49.6°F9.8°C 41% 0.4 mph ENE0.6 kmh ENE 0.9 mph1.4 kmh 30.10 in1019.3 mb 0.00 in0.0 mm 0.00 in0.0 mm 0.00 in0.0 mm
08:09 AM 75.0°F23.9°C 49.6°F9.8°C 41% 0.4 mph WNW0.6 kmh WNW 0.7 mph1.1 kmh 30.10 in1019.3 mb 0.00 in0.0 mm 0.00 in0.0 mm 0.00 in0.0 mm
08:11 AM 75.4°F24.1°C 50.0°F10.0°C 41% 0.4 mph NNE0.6 kmh NNE 1.3 mph2.1 kmh 30.10 in1019.3 mb 0.00 in0.0 mm 0.00 in0.0 mm 0.00 in0.0 mm
08:14 AM 75.4°F24.1°C 49.5°F9.7°C 40% 1.1 mph NNW1.8 kmh NNW 2.9 mph4.7 kmh 30.10 in1019.3 mb 0.00 in0.0 mm 0.00 in0.0 mm 0.00 in0.0 mm
08:16 AM 75.2°F24.0°C 49.3°F9.6°C 40% 1.3 mph WNW2.1 kmh WNW 2.9 mph4.7 kmh 30.10 in1019.3 mb 0.00 in0.0 mm 0.00 in0.0 mm 0.00 in0.0 mm
08:18 AM 75.0°F23.9°C 49.1°F9.5°C 40% 1.6 mph NNW2.6 kmh NNW 3.1 mph5.0 kmh 30.11 in1019.6 mb 0.00 in0.0 mm 0.00 in0.0 mm 0.00 in0.0 mm
08:20 AM 74.8°F23.8°C 49.6°F9.8°C 41% 1.6 mph 2.6 kmh 2.2 mph3.5 kmh 30.11 in1019.6 mb 0.00 in0.0 mm 0.00 in0.0 mm 0.00 in0.0 mm
08:22 AM 74.5°F23.6°C 49.3°F9.6°C 41% 1.6 mph 2.6 kmh 2.7 mph4.3 kmh 30.11 in1019.6 mb 0.00 in0.0 mm 0.00 in0.0 mm 0.00 in0.0 mm
08:25 AM 74.5°F23.6°C 49.3°F9.6°C 41% 1.1 mph WNW1.8 kmh WNW 2.0 mph3.2 kmh 30.11 in1019.6 mb 0.00 in0.0 mm 0.00 in0.0 mm 0.00 in0.0 mm
08:27 AM 74.7°F23.7°C 49.5°F9.7°C 41% 1.8 mph NNW2.9 kmh NNW 3.6 mph5.8 kmh 30.11 in1019.6 mb 0.00 in0.0 mm 0.00 in0.0 mm 0.00 in0.0 mm
08:29 AM 74.5°F23.6°C 49.3°F9.6°C 41% 2.0 mph WNW3.2 kmh WNW 4.5 mph7.2 kmh 30.11 in1019.6 mb 0.00 in0.0 mm 0.00 in0.0 mm 0.00 in0.0 mm
08:31 AM 74.5°F23.6°C 49.8°F9.9°C 42% 2.2 mph NNW3.5 kmh NNW 6.3 mph10.1 kmh 30.11 in1019.6 mb 0.00 in0.0 mm 0.00 in0.0 mm 0.00 in0.0 mm
08:34 AM 74.5°F23.6°C 49.8°F9.9°C 42% 2.9 mph NNW4.7 kmh NNW 5.4 mph8.7 kmh 30.11 in1019.6 mb 0.00 in0.0 mm 0.00 in0.0 mm 0.00 in0.0 mm
08:36 AM 74.8°F23.8°C 50.2°F10.1°C 42% 2.7 mph NNW4.3 kmh NNW 3.4 mph5.5 kmh 30.11 in1019.6 mb 0.00 in0.0 mm 0.00 in0.0 mm 0.00 in0.0 mm
08:38 AM 74.8°F23.8°C 50.2°F10.1°C 42% 2.9 mph NNW4.7 kmh NNW 4.5 mph7.2 kmh 30.11 in1019.6 mb 0.00 in0.0 mm 0.00 in0.0 mm 0.00 in0.0 mm
08:40 AM 74.8°F23.8°C 50.2°F10.1°C 42% 2.2 mph NW3.5 kmh NW 2.7 mph4.3 kmh 30.11 in1019.6 mb 0.00 in0.0 mm 0.00 in0.0 mm 0.00 in0.0 mm
08:43 AM 75.0°F23.9°C 50.4°F10.2°C 42% 2.5 mph NNW4.0 kmh NNW 3.6 mph5.8 kmh 30.11 in1019.6 mb 0.00 in0.0 mm 0.00 in0.0 mm 0.00 in0.0 mm
08:45 AM 75.0°F23.9°C 50.4°F10.2°C 42% 2.0 mph 3.2 kmh 2.7 mph4.3 kmh 30.11 in1019.6 mb 0.00 in0.0 mm 0.00 in0.0 mm 0.00 in0.0 mm
08:47 AM 75.4°F24.1°C 50.0°F10.0°C 41% 2.5 mph NNW4.0 kmh NNW 5.8 mph9.3 kmh 30.11 in1019.6 mb 0.00 in0.0 mm 0.00 in0.0 mm 0.00 in0.0 mm
08:49 AM 75.4°F24.1°C 49.5°F9.7°C 40% 2.2 mph NNE3.5 kmh NNE 4.7 mph7.6 kmh 30.11 in1019.6 mb 0.00 in0.0 mm 0.00 in0.0 mm 0.00 in0.0 mm
08:51 AM 75.6°F24.2°C 50.2°F10.1°C 41% 2.0 mph W3.2 kmh W 2.7 mph4.3 kmh 30.11 in1019.6 mb 0.00 in0.0 mm 0.00 in0.0 mm 0.00 in0.0 mm
08:53 AM 75.7°F24.3°C 49.6°F9.8°C 40% 1.3 mph WSW2.1 kmh WSW 1.8 mph2.9 kmh 30.11 in1019.6 mb 0.00 in0.0 mm 0.00 in0.0 mm 0.00 in0.0 mm
08:56 AM 75.7°F24.3°C 49.6°F9.8°C 40% 1.8 mph NW2.9 kmh NW 3.1 mph5.0 kmh 30.11 in1019.6 mb 0.00 in0.0 mm 0.00 in0.0 mm 0.00 in0.0 mm
08:58 AM 75.7°F24.3°C 49.6°F9.8°C 40% 2.0 mph NNW3.2 kmh NNW 3.8 mph6.1 kmh 30.11 in1019.6 mb 0.00 in0.0 mm 0.00 in0.0 mm 0.00 in0.0 mm
09:00 AM 75.9°F24.4°C 49.8°F9.9°C 40% 1.8 mph WNW2.9 kmh WNW 3.8 mph6.1 kmh 30.11 in1019.6 mb 0.00 in0.0 mm 0.00 in0.0 mm 0.00 in0.0 mm
09:02 AM 76.1°F24.5°C 48.6°F9.2°C 38% 1.6 mph WNW2.6 kmh WNW 3.8 mph6.1 kmh 30.11 in1019.6 mb 0.00 in0.0 mm 0.00 in0.0 mm 0.00 in0.0 mm
09:05 AM 76.5°F24.7°C 48.9°F9.4°C 38% 1.1 mph WSW1.8 kmh WSW 1.6 mph2.6 kmh 30.11 in1019.6 mb 0.00 in0.0 mm 0.00 in0.0 mm 0.00 in0.0 mm
09:07 AM 76.8°F24.9°C 49.3°F9.6°C 38% 0.9 mph NNW1.4 kmh NNW 2.2 mph3.5 kmh 30.11 in1019.6 mb 0.00 in0.0 mm 0.00 in0.0 mm 0.00 in0.0 mm
09:09 AM 77.4°F25.2°C 49.8°F9.9°C 38% 0.9 mph NNW1.4 kmh NNW 2.7 mph4.3 kmh 30.11 in1019.6 mb 0.00 in0.0 mm 0.00 in0.0 mm 0.00 in0.0 mm
09:11 AM 77.5°F25.3°C 49.3°F9.6°C 37% 1.1 mph S1.8 kmh S 4.3 mph6.9 kmh 30.11 in1019.6 mb 0.00 in0.0 mm 0.00 in0.0 mm 0.00 in0.0 mm
09:14 AM 77.5°F25.3°C 49.3°F9.6°C 37% 1.8 mph NNW2.9 kmh NNW 4.5 mph7.2 kmh 30.11 in1019.6 mb 0.00 in0.0 mm 0.00 in0.0 mm 0.00 in0.0 mm
09:16 AM 77.5°F25.3°C 48.6°F9.2°C 36% 1.3 mph 2.1 kmh 2.5 mph4.0 kmh 30.11 in1019.6 mb 0.00 in0.0 mm 0.00 in0.0 mm 0.00 in0.0 mm
09:18 AM 77.7°F25.4°C 48.6°F9.2°C 36% 1.3 mph NW2.1 kmh NW 2.5 mph4.0 kmh 30.11 in1019.6 mb 0.00 in0.0 mm 0.00 in0.0 mm 0.00 in0.0 mm
09:20 AM 77.9°F25.5°C 48.0°F8.9°C 35% 1.8 mph NNW2.9 kmh NNW 3.1 mph5.0 kmh 30.11 in1019.6 mb 0.00 in0.0 mm 0.00 in0.0 mm 0.00 in0.0 mm
09:23 AM 78.1°F25.6°C 48.2°F9.0°C 35% 2.5 mph NNW4.0 kmh NNW 5.4 mph8.7 kmh 30.11 in1019.6 mb 0.00 in0.0 mm 0.00 in0.0 mm 0.00 in0.0 mm
09:25 AM 78.1°F25.6°C 48.9°F9.4°C 36% 2.0 mph NNW3.2 kmh NNW 3.6 mph5.8 kmh 30.11 in1019.6 mb 0.00 in0.0 mm 0.00 in0.0 mm 0.00 in0.0 mm
09:27 AM 78.1°F25.6°C 48.9°F9.4°C 36% 1.6 mph NNW2.6 kmh NNW 2.5 mph4.0 kmh 30.11 in1019.6 mb 0.00 in0.0 mm 0.00 in0.0 mm 0.00 in0.0 mm
09:29 AM 78.4°F25.8°C 48.6°F9.2°C 35% 2.0 mph NNW3.2 kmh NNW 2.9 mph4.7 kmh 30.11 in1019.6 mb 0.00 in0.0 mm 0.00 in0.0 mm 0.00 in0.0 mm
09:32 AM 78.4°F25.8°C 49.3°F9.6°C 36% 2.0 mph WSW3.2 kmh WSW 3.8 mph6.1 kmh 30.11 in1019.6 mb 0.00 in0.0 mm 0.00 in0.0 mm 0.00 in0.0 mm
09:34 AM 78.4°F25.8°C 49.3°F9.6°C 36% 2.0 mph NNW3.2 kmh NNW 3.4 mph5.5 kmh 30.11 in1019.6 mb 0.00 in0.0 mm 0.00 in0.0 mm 0.00 in0.0 mm
09:36 AM 78.4°F25.8°C 49.3°F9.6°C 36% 2.2 mph 3.5 kmh 4.0 mph6.4 kmh 30.11 in1019.6 mb 0.00 in0.0 mm 0.00 in0.0 mm 0.00 in0.0 mm
09:38 AM 78.4°F25.8°C 49.3°F9.6°C 36% 2.7 mph W4.3 kmh W 4.9 mph7.9 kmh 30.11 in1019.6 mb 0.00 in0.0 mm 0.00 in0.0 mm 0.00 in0.0 mm
09:41 AM 78.6°F25.9°C 48.7°F9.3°C 35% 2.2 mph NNW3.5 kmh NNW 4.7 mph7.6 kmh 30.11 in1019.6 mb 0.00 in0.0 mm 0.00 in0.0 mm 0.00 in0.0 mm
09:43 AM 78.8°F26.0°C 48.9°F9.4°C 35% 2.2 mph 3.5 kmh 3.1 mph5.0 kmh 30.11 in1019.6 mb 0.00 in0.0 mm 0.00 in0.0 mm 0.00 in0.0 mm
09:45 AM 79.0°F26.1°C 48.9°F9.4°C 35% 2.2 mph 3.5 kmh 3.6 mph5.8 kmh 30.11 in1019.6 mb 0.00 in0.0 mm 0.00 in0.0 mm 0.00 in0.0 mm
09:48 AM 79.0°F26.1°C 48.2°F9.0°C 34% 2.2 mph SSW3.5 kmh SSW 3.1 mph5.0 kmh 30.11 in1019.6 mb 0.00 in0.0 mm 0.00 in0.0 mm 0.00 in0.0 mm
09:50 AM 79.0°F26.1°C 48.9°F9.4°C 35% 1.8 mph W2.9 kmh W 3.6 mph5.8 kmh 30.11 in1019.6 mb 0.00 in0.0 mm 0.00 in0.0 mm 0.00 in0.0 mm
09:52 AM 79.3°F26.3°C 50.0°F10.0°C 36% 1.8 mph NNW2.9 kmh NNW 3.8 mph6.1 kmh 30.11 in1019.6 mb 0.00 in0.0 mm 0.00 in0.0 mm 0.00 in0.0 mm
09:54 AM 79.5°F26.4°C 49.5°F9.7°C 35% 1.3 mph 2.1 kmh 2.7 mph4.3 kmh 30.11 in1019.6 mb 0.00 in0.0 mm 0.00 in0.0 mm 0.00 in0.0 mm
09:56 AM 79.5°F26.4°C 49.5°F9.7°C 35% 2.9 mph NW4.7 kmh NW 8.1 mph13.0 kmh 30.11 in1019.6 mb 0.00 in0.0 mm 0.00 in0.0 mm 0.00 in0.0 mm
09:58 AM 79.5°F26.4°C 49.5°F9.7°C 35% 2.2 mph 3.5 kmh 3.8 mph6.1 kmh 30.11 in1019.6 mb 0.00 in0.0 mm 0.00 in0.0 mm 0.00 in0.0 mm
10:01 AM 79.7°F26.5°C 48.9°F9.4°C 34% 1.6 mph NW2.6 kmh NW 2.2 mph3.5 kmh 30.11 in1019.6 mb 0.00 in0.0 mm 0.00 in0.0 mm 0.00 in0.0 mm
10:03 AM 79.7°F26.5°C 48.9°F9.4°C 34% 1.3 mph 2.1 kmh 3.4 mph5.5 kmh 30.11 in1019.6 mb 0.00 in0.0 mm 0.00 in0.0 mm 0.00 in0.0 mm
10:05 AM 79.9°F26.6°C 48.9°F9.4°C 34% 1.3 mph WNW2.1 kmh WNW 4.3 mph6.9 kmh 30.11 in1019.6 mb 0.00 in0.0 mm 0.00 in0.0 mm 0.00 in0.0 mm
10:07 AM 80.1°F26.7°C 49.1°F9.5°C 34% 2.2 mph NNW3.5 kmh NNW 5.6 mph9.0 kmh 30.11 in1019.6 mb 0.00 in0.0 mm 0.00 in0.0 mm 0.00 in0.0 mm
10:10 AM 80.4°F26.9°C 49.5°F9.7°C 34% 2.2 mph WSW3.5 kmh WSW 5.1 mph8.2 kmh 30.11 in1019.6 mb 0.00 in0.0 mm 0.00 in0.0 mm 0.00 in0.0 mm
10:12 AM 80.8°F27.1°C 48.2°F9.0°C 32% 3.1 mph NNW5.0 kmh NNW 5.1 mph8.2 kmh 30.11 in1019.6 mb 0.00 in0.0 mm 0.00 in0.0 mm 0.00 in0.0 mm
10:14 AM 81.0°F27.2°C 47.5°F8.6°C 31% 2.9 mph 4.7 kmh 4.9 mph7.9 kmh 30.11 in1019.6 mb 0.00 in0.0 mm 0.00 in0.0 mm 0.00 in0.0 mm
10:16 AM 81.0°F27.2°C 45.7°F7.6°C 29% 2.7 mph WSW4.3 kmh WSW 3.1 mph5.0 kmh 30.11 in1019.6 mb 0.00 in0.0 mm 0.00 in0.0 mm 0.00 in0.0 mm
10:19 AM 81.0°F27.2°C 44.8°F7.1°C 28% 2.7 mph NNW4.3 kmh NNW 5.6 mph9.0 kmh 30.11 in1019.6 mb 0.00 in0.0 mm 0.00 in0.0 mm 0.00 in0.0 mm
10:21 AM 81.0°F27.2°C 46.6°F8.1°C 30% 2.2 mph WSW3.5 kmh WSW 5.1 mph8.2 kmh 30.11 in1019.6 mb 0.00 in0.0 mm 0.00 in0.0 mm 0.00 in0.0 mm
10:23 AM 81.3°F27.4°C 46.0°F7.8°C 29% 1.6 mph NNW2.6 kmh NNW 2.5 mph4.0 kmh 30.11 in1019.6 mb 0.00 in0.0 mm 0.00 in0.0 mm 0.00 in0.0 mm
10:25 AM 81.3°F27.4°C 45.1°F7.3°C 28% 1.3 mph WNW2.1 kmh WNW 2.2 mph3.5 kmh 30.11 in1019.6 mb 0.00 in0.0 mm 0.00 in0.0 mm 0.00 in0.0 mm
10:28 AM 81.3°F27.4°C 44.1°F6.7°C 27% 2.0 mph WNW3.2 kmh WNW 4.0 mph6.4 kmh 30.11 in1019.6 mb 0.00 in0.0 mm 0.00 in0.0 mm 0.00 in0.0 mm
10:30 AM 81.3°F27.4°C 44.1°F6.7°C 27% 2.2 mph 3.5 kmh 4.9 mph7.9 kmh 30.12 in1020.0 mb 0.00 in0.0 mm 0.00 in0.0 mm 0.00 in0.0 mm
10:32 AM 81.7°F27.6°C 44.4°F6.9°C 27% 1.3 mph S2.1 kmh S 2.2 mph3.5 kmh 30.11 in1019.6 mb 0.00 in0.0 mm 0.00 in0.0 mm 0.00 in0.0 mm
10:35 AM 82.2°F27.9°C 45.0°F7.2°C 27% 0.9 mph SSW1.4 kmh SSW 2.0 mph3.2 kmh 30.11 in1019.6 mb 0.00 in0.0 mm 0.00 in0.0 mm 0.00 in0.0 mm
10:37 AM 82.6°F28.1°C 44.2°F6.8°C 26% 0.7 mph SSE1.1 kmh SSE 1.3 mph2.1 kmh 30.11 in1019.6 mb 0.00 in0.0 mm 0.00 in0.0 mm 0.00 in0.0 mm
10:39 AM 82.9°F28.3°C 44.6°F7.0°C 26% 0.7 mph NW1.1 kmh NW 2.0 mph3.2 kmh 30.11 in1019.6 mb 0.00 in0.0 mm 0.00 in0.0 mm 0.00 in0.0 mm
10:41 AM 83.3°F28.5°C 44.8°F7.1°C 26% 1.3 mph NNW2.1 kmh NNW 3.6 mph5.8 kmh 30.11 in1019.6 mb 0.00 in0.0 mm 0.00 in0.0 mm 0.00 in0.0 mm
10:43 AM 82.9°F28.3°C 44.6°F7.0°C 26% 2.7 mph NNW4.3 kmh NNW 6.0 mph9.7 kmh 30.11 in1019.6 mb 0.00 in0.0 mm 0.00 in0.0 mm 0.00 in0.0 mm
10:45 AM 82.9°F28.3°C 44.6°F7.0°C 26% 1.8 mph 2.9 kmh 1.8 mph2.9 kmh 30.11 in1019.6 mb 0.00 in0.0 mm 0.00 in0.0 mm 0.00 in0.0 mm
10:47 AM 82.9°F28.3°C 44.6°F7.0°C 26% 2.0 mph 3.2 kmh 4.0 mph6.4 kmh 30.11 in1019.6 mb 0.00 in0.0 mm 0.00 in0.0 mm 0.00 in0.0 mm
10:50 AM 82.8°F28.2°C 44.4°F6.9°C 26% 1.8 mph SSE2.9 kmh SSE 5.1 mph8.2 kmh 30.11 in1019.6 mb 0.00 in0.0 mm 0.00 in0.0 mm 0.00 in0.0 mm
10:52 AM 82.9°F28.3°C 44.6°F7.0°C 26% 2.0 mph 3.2 kmh 4.3 mph6.9 kmh 30.11 in1019.6 mb 0.00 in0.0 mm 0.00 in0.0 mm 0.00 in0.0 mm
10:54 AM 83.3°F28.5°C 43.9°F6.6°C 25% 1.3 mph NW2.1 kmh NW 2.5 mph4.0 kmh 30.11 in1019.6 mb 0.00 in0.0 mm 0.00 in0.0 mm 0.00 in0.0 mm
10:56 AM 83.3°F28.5°C 41.7°F5.4°C 23% 1.8 mph W2.9 kmh W 2.9 mph4.7 kmh 30.11 in1019.6 mb 0.00 in0.0 mm 0.00 in0.0 mm 0.00 in0.0 mm
10:59 AM 83.5°F28.6°C 41.7°F5.4°C 23% 1.8 mph NNW2.9 kmh NNW 3.8 mph6.1 kmh 30.11 in1019.6 mb 0.00 in0.0 mm 0.00 in0.0 mm 0.00 in0.0 mm
11:01 AM 83.8°F28.8°C 43.2°F6.2°C 24% 1.6 mph SSW2.6 kmh SSW 4.0 mph6.4 kmh 30.11 in1019.6 mb 0.00 in0.0 mm 0.00 in0.0 mm 0.00 in0.0 mm
11:03 AM 84.4°F29.1°C 41.4°F5.2°C 22% 2.2 mph NE3.5 kmh NE 6.3 mph10.1 kmh 30.11 in1019.6 mb 0.00 in0.0 mm 0.00 in0.0 mm 0.00 in0.0 mm
11:05 AM 84.6°F29.2°C 41.5°F5.3°C 22% 1.8 mph NNE2.9 kmh NNE 3.8 mph6.1 kmh 30.11 in1019.6 mb 0.00 in0.0 mm 0.00 in0.0 mm 0.00 in0.0 mm
11:07 AM 84.9°F29.4°C 41.9°F5.5°C 22% 1.6 mph NNW2.6 kmh NNW 3.6 mph5.8 kmh 30.11 in1019.6 mb 0.00 in0.0 mm 0.00 in0.0 mm 0.00 in0.0 mm
11:09 AM 85.3°F29.6°C 42.1°F5.6°C 22% 1.6 mph 2.6 kmh 3.1 mph5.0 kmh 30.11 in1019.6 mb 0.00 in0.0 mm 0.00 in0.0 mm 0.00 in0.0 mm
11:12 AM 85.6°F29.8°C 42.4°F5.8°C 22% 2.7 mph NNW4.3 kmh NNW 5.8 mph9.3 kmh 30.11 in1019.6 mb 0.00 in0.0 mm 0.00 in0.0 mm 0.00 in0.0 mm
11:14 AM 85.3°F29.6°C 42.1°F5.6°C 22% 2.2 mph NNW3.5 kmh NNW 4.3 mph6.9 kmh 30.11 in1019.6 mb 0.00 in0.0 mm 0.00 in0.0 mm 0.00 in0.0 mm
11:16 AM 85.5°F29.7°C 42.3°F5.7°C 22% 1.8 mph WSW2.9 kmh WSW 2.2 mph3.5 kmh 30.11 in1019.6 mb 0.00 in0.0 mm 0.00 in0.0 mm 0.00 in0.0 mm
11:18 AM 85.5°F29.7°C 42.3°F5.7°C 22% 2.5 mph NW4.0 kmh NW 5.8 mph9.3 kmh 30.11 in1019.6 mb 0.00 in0.0 mm 0.00 in0.0 mm 0.00 in0.0 mm
11:20 AM 85.3°F29.6°C 41.0°F5.0°C 21% 2.9 mph W4.7 kmh W 5.8 mph9.3 kmh 30.11 in1019.6 mb 0.00 in0.0 mm 0.00 in0.0 mm 0.00 in0.0 mm
11:23 AM 84.9°F29.4°C 41.9°F5.5°C 22% 3.4 mph W5.5 kmh W 6.7 mph10.8 kmh 30.11 in1019.6 mb 0.00 in0.0 mm 0.00 in0.0 mm 0.00 in0.0 mm
11:25 AM 84.7°F29.3°C 41.7°F5.4°C 22% 3.1 mph WNW5.0 kmh WNW 6.9 mph11.1 kmh 30.11 in1019.6 mb 0.00 in0.0 mm 0.00 in0.0 mm 0.00 in0.0 mm
11:27 AM 84.6°F29.2°C 41.5°F5.3°C 22% 2.7 mph NW4.3 kmh NW 5.1 mph8.2 kmh 30.11 in1019.6 mb 0.00 in0.0 mm 0.00 in0.0 mm 0.00 in0.0 mm
11:29 AM 84.7°F29.3°C 41.7°F5.4°C 22% 2.9 mph NNW4.7 kmh NNW 7.2 mph11.6 kmh 30.11 in1019.6 mb 0.00 in0.0 mm 0.00 in0.0 mm 0.00 in0.0 mm
11:31 AM 84.9°F29.4°C 41.9°F5.5°C 22% 2.9 mph NNW4.7 kmh NNW 6.3 mph10.1 kmh 30.11 in1019.6 mb 0.00 in0.0 mm 0.00 in0.0 mm 0.00 in0.0 mm
11:33 AM 85.3°F29.6°C 42.1°F5.6°C 22% 2.7 mph WNW4.3 kmh WNW 3.4 mph5.5 kmh 30.11 in1019.6 mb 0.00 in0.0 mm 0.00 in0.0 mm 0.00 in0.0 mm
11:35 AM 85.3°F29.6°C 42.1°F5.6°C 22% 3.1 mph NNW5.0 kmh NNW 4.5 mph7.2 kmh 30.11 in1019.6 mb 0.00 in0.0 mm 0.00 in0.0 mm 0.00 in0.0 mm
11:37 AM 85.5°F29.7°C 42.3°F5.7°C 22% 2.9 mph NNW4.7 kmh NNW 3.8 mph6.1 kmh 30.11 in1019.6 mb 0.00 in0.0 mm 0.00 in0.0 mm 0.00 in0.0 mm
11:40 AM 85.3°F29.6°C 42.1°F5.6°C 22% 2.2 mph WNW3.5 kmh WNW 2.2 mph3.5 kmh 30.11 in1019.6 mb 0.00 in0.0 mm 0.00 in0.0 mm 0.00 in0.0 mm
11:42 AM 85.6°F29.8°C 42.4°F5.8°C 22% 1.6 mph NW2.6 kmh NW 2.9 mph4.7 kmh 30.11 in1019.6 mb 0.00 in0.0 mm 0.00 in0.0 mm 0.00 in0.0 mm
11:44 AM 85.8°F29.9°C 42.6°F5.9°C 22% 2.2 mph WSW3.5 kmh WSW 5.1 mph8.2 kmh 30.11 in1019.6 mb 0.00 in0.0 mm 0.00 in0.0 mm 0.00 in0.0 mm
11:46 AM 85.8°F29.9°C 42.6°F5.9°C 22% 1.3 mph NNE2.1 kmh NNE 2.5 mph4.0 kmh 30.12 in1020.0 mb 0.00 in0.0 mm 0.00 in0.0 mm 0.00 in0.0 mm
11:48 AM 86.0°F30.0°C 42.8°F6.0°C 22% 2.0 mph NE3.2 kmh NE 3.6 mph5.8 kmh 30.11 in1019.6 mb 0.00 in0.0 mm 0.00 in0.0 mm 0.00 in0.0 mm
11:50 AM 85.8°F29.9°C 42.6°F5.9°C 22% 1.1 mph NW1.8 kmh NW 0.9 mph1.4 kmh 30.11 in1019.6 mb 0.00 in0.0 mm 0.00 in0.0 mm 0.00 in0.0 mm
11:52 AM 86.0°F30.0°C 41.5°F5.3°C 21% 1.6 mph WSW2.6 kmh WSW 4.5 mph7.2 kmh 30.11 in1019.6 mb 0.00 in0.0 mm 0.00 in0.0 mm 0.00 in0.0 mm
11:55 AM 85.8°F29.9°C 42.6°F5.9°C 22% 1.1 mph S1.8 kmh S 2.9 mph4.7 kmh 30.11 in1019.6 mb 0.00 in0.0 mm 0.00 in0.0 mm 0.00 in0.0 mm
11:57 AM 85.8°F29.9°C 42.6°F5.9°C 22% 1.6 mph W2.6 kmh W 4.7 mph7.6 kmh 30.11 in1019.6 mb 0.00 in0.0 mm 0.00 in0.0 mm 0.00 in0.0 mm
11:59 AM 86.2°F30.1°C 41.7°F5.4°C 21% 2.0 mph 3.2 kmh 6.7 mph10.8 kmh 30.11 in1019.6 mb 0.00 in0.0 mm 0.00 in0.0 mm 0.00 in0.0 mm
12:01 PM 86.2°F30.1°C 41.7°F5.4°C 21% 2.0 mph SSE3.2 kmh SSE 4.3 mph6.9 kmh 30.11 in1019.6 mb 0.00 in0.0 mm 0.00 in0.0 mm 0.00 in0.0 mm
12:03 PM 85.8°F29.9°C 42.6°F5.9°C 22% 2.0 mph NE3.2 kmh NE 4.0 mph6.4 kmh 30.11 in1019.6 mb 0.00 in0.0 mm 0.00 in0.0 mm 0.00 in0.0 mm
12:06 PM 86.2°F30.1°C 41.7°F5.4°C 21% 3.4 mph 5.5 kmh 8.5 mph13.7 kmh 30.11 in1019.6 mb 0.00 in0.0 mm 0.00 in0.0 mm 0.00 in0.0 mm
12:08 PM 86.4°F30.2°C 41.9°F5.5°C 21% 3.4 mph NW5.5 kmh NW 5.1 mph8.2 kmh 30.11 in1019.6 mb 0.00 in0.0 mm 0.00 in0.0 mm 0.00 in0.0 mm
12:10 PM 86.2°F30.1°C 41.7°F5.4°C 21% 2.9 mph S4.7 kmh S 3.6 mph5.8 kmh 30.11 in1019.6 mb 0.00 in0.0 mm 0.00 in0.0 mm 0.00 in0.0 mm
12:12 PM 85.8°F29.9°C 41.4°F5.2°C 21% 2.7 mph E4.3 kmh E 4.5 mph7.2 kmh 30.11 in1019.6 mb 0.00 in0.0 mm 0.00 in0.0 mm 0.00 in0.0 mm
12:14 PM 86.5°F30.3°C 41.9°F5.5°C 21% 3.1 mph 5.0 kmh 6.7 mph10.8 kmh 30.11 in1019.6 mb 0.00 in0.0 mm 0.00 in0.0 mm 0.00 in0.0 mm
12:17 PM 86.5°F30.3°C 41.9°F5.5°C 21% 2.9 mph SSW4.7 kmh SSW 7.4 mph11.9 kmh 30.11 in1019.6 mb 0.00 in0.0 mm 0.00 in0.0 mm 0.00 in0.0 mm
12:19 PM 87.1°F30.6°C 42.4°F5.8°C 21% 2.9 mph E4.7 kmh E 6.9 mph11.1 kmh 30.11 in1019.6 mb 0.00 in0.0 mm 0.00 in0.0 mm 0.00 in0.0 mm
12:21 PM 87.4°F30.8°C 42.8°F6.0°C 21% 2.7 mph NNW4.3 kmh NNW 7.8 mph12.6 kmh 30.10 in1019.3 mb 0.00 in0.0 mm 0.00 in0.0 mm 0.00 in0.0 mm
12:24 PM 87.1°F30.6°C 41.2°F5.1°C 20% 3.4 mph NNW5.5 kmh NNW 8.9 mph14.3 kmh 30.10 in1019.3 mb 0.00 in0.0 mm 0.00 in0.0 mm 0.00 in0.0 mm
12:26 PM 87.4°F30.8°C 41.4°F5.2°C 20% 2.7 mph NNE4.3 kmh NNE 3.6 mph5.8 kmh 30.11 in1019.6 mb 0.00 in0.0 mm 0.00 in0.0 mm 0.00 in0.0 mm
12:28 PM 87.4°F30.8°C 41.4°F5.2°C 20% 2.2 mph ENE3.5 kmh ENE 9.2 mph14.8 kmh 30.10 in1019.3 mb 0.00 in0.0 mm 0.00 in0.0 mm 0.00 in0.0 mm
12:30 PM 87.6°F30.9°C 41.5°F5.3°C 20% 2.2 mph E3.5 kmh E 4.3 mph6.9 kmh 30.10 in1019.3 mb 0.00 in0.0 mm 0.00 in0.0 mm 0.00 in0.0 mm
12:32 PM 88.0°F31.1°C 41.9°F5.5°C 20% 2.0 mph 3.2 kmh 4.9 mph7.9 kmh 30.10 in1019.3 mb 0.00 in0.0 mm 0.00 in0.0 mm 0.00 in0.0 mm
12:34 PM 88.2°F31.2°C 40.6°F4.8°C 19% 2.9 mph 4.7 kmh 7.6 mph12.2 kmh 30.11 in1019.6 mb 0.00 in0.0 mm 0.00 in0.0 mm 0.00 in0.0 mm
12:37 PM 87.8°F31.0°C 40.5°F4.7°C 19% 3.4 mph WNW5.5 kmh WNW 6.0 mph9.7 kmh 30.11 in1019.6 mb 0.00 in0.0 mm 0.00 in0.0 mm 0.00 in0.0 mm
12:39 PM 87.6°F30.9°C 40.3°F4.6°C 19% 2.5 mph 4.0 kmh 3.8 mph6.1 kmh 30.10 in1019.3 mb 0.00 in0.0 mm 0.00 in0.0 mm 0.00 in0.0 mm
12:41 PM 88.2°F31.2°C 40.6°F4.8°C 19% 1.6 mph ESE2.6 kmh ESE 2.5 mph4.0 kmh 30.10 in1019.3 mb 0.00 in0.0 mm 0.00 in0.0 mm 0.00 in0.0 mm
12:43 PM 88.3°F31.3°C 40.8°F4.9°C 19% 2.5 mph W4.0 kmh W 5.4 mph8.7 kmh 30.10 in1019.3 mb 0.00 in0.0 mm 0.00 in0.0 mm 0.00 in0.0 mm
12:46 PM 88.5°F31.4°C 41.0°F5.0°C 19% 1.8 mph NE2.9 kmh NE 2.7 mph4.3 kmh 30.10 in1019.3 mb 0.00 in0.0 mm 0.00 in0.0 mm 0.00 in0.0 mm
12:48 PM 88.3°F31.3°C 40.8°F4.9°C 19% 1.6 mph E2.6 kmh E 2.7 mph4.3 kmh 30.10 in1019.3 mb 0.00 in0.0 mm 0.00 in0.0 mm 0.00 in0.0 mm
12:50 PM 88.0°F31.1°C 41.9°F5.5°C 20% 2.7 mph ESE4.3 kmh ESE 5.6 mph9.0 kmh 30.10 in1019.3 mb 0.00 in0.0 mm 0.00 in0.0 mm 0.00 in0.0 mm
12:52 PM 87.6°F30.9°C 41.5°F5.3°C 20% 3.4 mph SE5.5 kmh SE 7.6 mph12.2 kmh 30.09 in1019.0 mb 0.00 in0.0 mm 0.00 in0.0 mm 0.00 in0.0 mm
12:55 PM 87.4°F30.8°C 41.4°F5.2°C 20% 3.6 mph ESE5.8 kmh ESE 5.4 mph8.7 kmh 30.10 in1019.3 mb 0.00 in0.0 mm 0.00 in0.0 mm 0.00 in0.0 mm
12:57 PM 87.6°F30.9°C 41.5°F5.3°C 20% 3.8 mph 6.1 kmh 6.0 mph9.7 kmh 30.10 in1019.3 mb 0.00 in0.0 mm 0.00 in0.0 mm 0.00 in0.0 mm
12:59 PM 87.4°F30.8°C 41.4°F5.2°C 20% 2.7 mph NNW4.3 kmh NNW 3.6 mph5.8 kmh 30.09 in1019.0 mb 0.00 in0.0 mm 0.00 in0.0 mm 0.00 in0.0 mm
01:01 PM 87.6°F30.9°C 41.5°F5.3°C 20% 2.5 mph W4.0 kmh W 4.7 mph7.6 kmh 30.10 in1019.3 mb 0.00 in0.0 mm 0.00 in0.0 mm 0.00 in0.0 mm
01:03 PM 88.0°F31.1°C 40.6°F4.8°C 19% 2.9 mph NNW4.7 kmh NNW 5.4 mph8.7 kmh 30.10 in1019.3 mb 0.00 in0.0 mm 0.00 in0.0 mm 0.00 in0.0 mm
01:05 PM 88.0°F31.1°C 40.6°F4.8°C 19% 2.2 mph 3.5 kmh 3.6 mph5.8 kmh 30.09 in1019.0 mb 0.00 in0.0 mm 0.00 in0.0 mm 0.00 in0.0 mm
01:08 PM 87.6°F30.9°C 40.3°F4.6°C 19% 1.6 mph ENE2.6 kmh ENE 3.1 mph5.0 kmh 30.09 in1019.0 mb 0.00 in0.0 mm 0.00 in0.0 mm 0.00 in0.0 mm
01:10 PM 87.6°F30.9°C 40.3°F4.6°C 19% 2.9 mph E4.7 kmh E 5.6 mph9.0 kmh 30.09 in1019.0 mb 0.00 in0.0 mm 0.00 in0.0 mm 0.00 in0.0 mm
01:12 PM 88.0°F31.1°C 41.9°F5.5°C 20% 3.4 mph ENE5.5 kmh ENE 6.3 mph10.1 kmh 30.10 in1019.3 mb 0.00 in0.0 mm 0.00 in0.0 mm 0.00 in0.0 mm
01:14 PM 88.5°F31.4°C 41.0°F5.0°C 19% 3.4 mph E5.5 kmh E 5.1 mph8.2 kmh 30.09 in1019.0 mb 0.00 in0.0 mm 0.00 in0.0 mm 0.00 in0.0 mm
01:16 PM 88.5°F31.4°C 41.0°F5.0°C 19% 3.8 mph SE6.1 kmh SE 6.0 mph9.7 kmh 30.09 in1019.0 mb 0.00 in0.0 mm 0.00 in0.0 mm 0.00 in0.0 mm
01:18 PM 88.5°F31.4°C 41.0°F5.0°C 19% 2.7 mph W4.3 kmh W 3.6 mph5.8 kmh 30.09 in1019.0 mb 0.00 in0.0 mm 0.00 in0.0 mm 0.00 in0.0 mm
01:21 PM 88.9°F31.6°C 41.4°F5.2°C 19% 3.4 mph NNW5.5 kmh NNW 8.5 mph13.7 kmh 30.09 in1019.0 mb 0.00 in0.0 mm 0.00 in0.0 mm 0.00 in0.0 mm
01:23 PM 88.9°F31.6°C 41.4°F5.2°C 19% 2.7 mph S4.3 kmh S 4.0 mph6.4 kmh 30.10 in1019.3 mb 0.00 in0.0 mm 0.00 in0.0 mm 0.00 in0.0 mm
01:25 PM 89.2°F31.8°C 41.5°F5.3°C 19% 2.0 mph ESE3.2 kmh ESE 2.7 mph4.3 kmh 30.09 in1019.0 mb 0.00 in0.0 mm 0.00 in0.0 mm 0.00 in0.0 mm
01:27 PM 89.2°F31.8°C 41.5°F5.3°C 19% 1.8 mph NNW2.9 kmh NNW 2.7 mph4.3 kmh 30.10 in1019.3 mb 0.00 in0.0 mm 0.00 in0.0 mm 0.00 in0.0 mm
01:30 PM 89.4°F31.9°C 40.3°F4.6°C 18% 2.2 mph SW3.5 kmh SW 6.7 mph10.8 kmh 30.09 in1019.0 mb 0.00 in0.0 mm 0.00 in0.0 mm 0.00 in0.0 mm
01:32 PM 89.4°F31.9°C 41.7°F5.4°C 19% 2.2 mph NE3.5 kmh NE 4.5 mph7.2 kmh 30.09 in1019.0 mb 0.00 in0.0 mm 0.00 in0.0 mm 0.00 in0.0 mm
01:34 PM 89.8°F32.1°C 40.6°F4.8°C 18% 2.2 mph SSE3.5 kmh SSE 4.3 mph6.9 kmh 30.10 in1019.3 mb 0.00 in0.0 mm 0.00 in0.0 mm 0.00 in0.0 mm
01:36 PM 90.0°F32.2°C 40.8°F4.9°C 18% 2.2 mph ENE3.5 kmh ENE 4.7 mph7.6 kmh 30.09 in1019.0 mb 0.00 in0.0 mm 0.00 in0.0 mm 0.00 in0.0 mm
01:38 PM 90.1°F32.3°C 41.0°F5.0°C 18% 2.9 mph NE4.7 kmh NE 4.9 mph7.9 kmh 30.09 in1019.0 mb 0.00 in0.0 mm 0.00 in0.0 mm 0.00 in0.0 mm
01:41 PM 90.0°F32.2°C 40.8°F4.9°C 18% 2.7 mph SSE4.3 kmh SSE 5.1 mph8.2 kmh 30.09 in1019.0 mb 0.00 in0.0 mm 0.00 in0.0 mm 0.00 in0.0 mm
01:43 PM 90.1°F32.3°C 41.0°F5.0°C 18% 2.9 mph NNE4.7 kmh NNE 5.1 mph8.2 kmh 30.10 in1019.3 mb 0.00 in0.0 mm 0.00 in0.0 mm 0.00 in0.0 mm
01:45 PM 90.0°F32.2°C 40.8°F4.9°C 18% 2.5 mph ENE4.0 kmh ENE 4.7 mph7.6 kmh 30.09 in1019.0 mb 0.00 in0.0 mm 0.00 in0.0 mm 0.00 in0.0 mm
01:47 PM 90.0°F32.2°C 40.8°F4.9°C 18% 2.9 mph NNE4.7 kmh NNE 6.0 mph9.7 kmh 30.09 in1019.0 mb 0.00 in0.0 mm 0.00 in0.0 mm 0.00 in0.0 mm
01:49 PM 90.0°F32.2°C 40.8°F4.9°C 18% 2.2 mph ENE3.5 kmh ENE 3.8 mph6.1 kmh 30.09 in1019.0 mb 0.00 in0.0 mm 0.00 in0.0 mm 0.00 in0.0 mm
01:52 PM 90.1°F32.3°C 41.0°F5.0°C 18% 2.2 mph SSW3.5 kmh SSW 4.3 mph6.9 kmh 30.09 in1019.0 mb 0.00 in0.0 mm 0.00 in0.0 mm 0.00 in0.0 mm
01:54 PM 90.1°F32.3°C 41.0°F5.0°C 18% 2.2 mph 3.5 kmh 4.0 mph6.4 kmh 30.09 in1019.0 mb 0.00 in0.0 mm 0.00 in0.0 mm 0.00 in0.0 mm
01:56 PM 90.1°F32.3°C 41.0°F5.0°C 18% 2.7 mph WNW4.3 kmh WNW 5.1 mph8.2 kmh 30.09 in1019.0 mb 0.00 in0.0 mm 0.00 in0.0 mm 0.00 in0.0 mm
01:58 PM 90.3°F32.4°C 41.0°F5.0°C 18% 2.2 mph W3.5 kmh W 4.9 mph7.9 kmh 30.09 in1019.0 mb 0.00 in0.0 mm 0.00 in0.0 mm 0.00 in0.0 mm
02:01 PM 90.7°F32.6°C 41.4°F5.2°C 18% 2.2 mph NNE3.5 kmh NNE 3.1 mph5.0 kmh 30.09 in1019.0 mb 0.00 in0.0 mm 0.00 in0.0 mm 0.00 in0.0 mm
02:03 PM 91.0°F32.8°C 41.7°F5.4°C 18% 2.5 mph W4.0 kmh W 3.8 mph6.1 kmh 30.09 in1019.0 mb 0.00 in0.0 mm 0.00 in0.0 mm 0.00 in0.0 mm
02:05 PM 90.9°F32.7°C 41.5°F5.3°C 18% 2.0 mph SSE3.2 kmh SSE 2.2 mph3.5 kmh 30.09 in1019.0 mb 0.00 in0.0 mm 0.00 in0.0 mm 0.00 in0.0 mm
02:07 PM 90.5°F32.5°C 41.2°F5.1°C 18% 2.0 mph SW3.2 kmh SW 7.6 mph12.2 kmh 30.09 in1019.0 mb 0.00 in0.0 mm 0.00 in0.0 mm 0.00 in0.0 mm
02:09 PM 90.3°F32.4°C 41.0°F5.0°C 18% 2.0 mph NNW3.2 kmh NNW 3.4 mph5.5 kmh 30.08 in1018.6 mb 0.00 in0.0 mm 0.00 in0.0 mm 0.00 in0.0 mm
02:11 PM 90.5°F32.5°C 41.2°F5.1°C 18% 2.2 mph SSW3.5 kmh SSW 4.3 mph6.9 kmh 30.09 in1019.0 mb 0.00 in0.0 mm 0.00 in0.0 mm 0.00 in0.0 mm
02:14 PM 90.3°F32.4°C 41.0°F5.0°C 18% 2.2 mph ENE3.5 kmh ENE 4.9 mph7.9 kmh 30.09 in1019.0 mb 0.00 in0.0 mm 0.00 in0.0 mm 0.00 in0.0 mm
02:16 PM 90.9°F32.7°C 41.5°F5.3°C 18% 1.3 mph ESE2.1 kmh ESE 1.8 mph2.9 kmh 30.08 in1018.6 mb 0.00 in0.0 mm 0.00 in0.0 mm 0.00 in0.0 mm
02:18 PM 91.0°F32.8°C 38.7°F3.7°C 16% 2.0 mph NNW3.2 kmh NNW 5.8 mph9.3 kmh 30.08 in1018.6 mb 0.00 in0.0 mm 0.00 in0.0 mm 0.00 in0.0 mm
02:20 PM 90.7°F32.6°C 38.3°F3.5°C 16% 2.7 mph WNW4.3 kmh WNW 5.1 mph8.2 kmh 30.08 in1018.6 mb 0.00 in0.0 mm 0.00 in0.0 mm 0.00 in0.0 mm
02:22 PM 90.3°F32.4°C 38.1°F3.4°C 16% 2.2 mph NW3.5 kmh NW 3.6 mph5.8 kmh 30.08 in1018.6 mb 0.00 in0.0 mm 0.00 in0.0 mm 0.00 in0.0 mm
02:25 PM 90.5°F32.5°C 41.2°F5.1°C 18% 1.6 mph NW2.6 kmh NW 2.7 mph4.3 kmh 30.08 in1018.6 mb 0.00 in0.0 mm 0.00 in0.0 mm 0.00 in0.0 mm
02:27 PM 90.7°F32.6°C 41.4°F5.2°C 18% 1.1 mph ENE1.8 kmh ENE 2.9 mph4.7 kmh 30.08 in1018.6 mb 0.00 in0.0 mm 0.00 in0.0 mm 0.00 in0.0 mm
02:29 PM 90.7°F32.6°C 41.4°F5.2°C 18% 1.6 mph NE2.6 kmh NE 4.3 mph6.9 kmh 30.08 in1018.6 mb 0.00 in0.0 mm 0.00 in0.0 mm 0.00 in0.0 mm
02:31 PM 91.0°F32.8°C 38.7°F3.7°C 16% 1.3 mph NNW2.1 kmh NNW 2.7 mph4.3 kmh 30.08 in1018.6 mb 0.00 in0.0 mm 0.00 in0.0 mm 0.00 in0.0 mm
02:33 PM 91.0°F32.8°C 40.1°F4.5°C 17% 1.8 mph WSW2.9 kmh WSW 3.4 mph5.5 kmh 30.08 in1018.6 mb 0.00 in0.0 mm 0.00 in0.0 mm 0.00 in0.0 mm
02:36 PM 91.2°F32.9°C 41.7°F5.4°C 18% 1.6 mph ESE2.6 kmh ESE 2.5 mph4.0 kmh 30.08 in1018.6 mb 0.00 in0.0 mm 0.00 in0.0 mm 0.00 in0.0 mm
02:38 PM 91.2°F32.9°C 40.3°F4.6°C 17% 2.5 mph SW4.0 kmh SW 9.2 mph14.8 kmh 30.08 in1018.6 mb 0.00 in0.0 mm 0.00 in0.0 mm 0.00 in0.0 mm
02:40 PM 91.2°F32.9°C 41.7°F5.4°C 18% 2.9 mph NE4.7 kmh NE 5.6 mph9.0 kmh 30.08 in1018.6 mb 0.00 in0.0 mm 0.00 in0.0 mm 0.00 in0.0 mm
02:42 PM 91.0°F32.8°C 38.7°F3.7°C 16% 4.0 mph 6.4 kmh 8.5 mph13.7 kmh 30.08 in1018.6 mb 0.00 in0.0 mm 0.00 in0.0 mm 0.00 in0.0 mm
02:44 PM 90.5°F32.5°C 39.7°F4.3°C 17% 3.1 mph NW5.0 kmh NW 5.8 mph9.3 kmh 30.08 in1018.6 mb 0.00 in0.0 mm 0.00 in0.0 mm 0.00 in0.0 mm
02:46 PM 90.3°F32.4°C 41.0°F5.0°C 18% 2.2 mph ESE3.5 kmh ESE 2.0 mph3.2 kmh 30.08 in1018.6 mb 0.00 in0.0 mm 0.00 in0.0 mm 0.00 in0.0 mm
02:48 PM 90.5°F32.5°C 41.2°F5.1°C 18% 1.6 mph 2.6 kmh 3.8 mph6.1 kmh 30.08 in1018.6 mb 0.00 in0.0 mm 0.00 in0.0 mm 0.00 in0.0 mm
02:50 PM 90.5°F32.5°C 41.2°F5.1°C 18% 1.8 mph NNW2.9 kmh NNW 5.4 mph8.7 kmh 30.08 in1018.6 mb 0.00 in0.0 mm 0.00 in0.0 mm 0.00 in0.0 mm
02:52 PM 90.7°F32.6°C 50.0°F10.0°C 25% 2.0 mph NNE3.2 kmh NNE 6.0 mph9.7 kmh 30.07 in1018.3 mb 0.00 in0.0 mm 0.00 in0.0 mm 0.00 in0.0 mm
02:54 PM 90.7°F32.6°C 53.1°F11.7°C 28% 4.0 mph 6.4 kmh 10.1 mph16.3 kmh 30.08 in1018.6 mb 0.00 in0.0 mm 0.00 in0.0 mm 0.00 in0.0 mm
02:56 PM 90.0°F32.2°C 52.5°F11.4°C 28% 5.1 mph WNW8.2 kmh WNW 17.2 mph27.7 kmh 30.08 in1018.6 mb 0.00 in0.0 mm 0.00 in0.0 mm 0.00 in0.0 mm
02:59 PM 89.8°F32.1°C 52.3°F11.3°C 28% 4.9 mph NNW7.9 kmh NNW 10.5 mph16.9 kmh 30.08 in1018.6 mb 0.00 in0.0 mm 0.00 in0.0 mm 0.00 in0.0 mm
03:01 PM 89.8°F32.1°C 53.2°F11.8°C 29% 4.5 mph 7.2 kmh 7.2 mph11.6 kmh 30.08 in1018.6 mb 0.00 in0.0 mm 0.00 in0.0 mm 0.00 in0.0 mm
03:03 PM 89.4°F31.9°C 53.1°F11.7°C 29% 4.5 mph W7.2 kmh W 7.4 mph11.9 kmh 30.08 in1018.6 mb 0.00 in0.0 mm 0.00 in0.0 mm 0.00 in0.0 mm
03:05 PM 89.4°F31.9°C 52.0°F11.1°C 28% 4.9 mph NNE7.9 kmh NNE 11.4 mph18.3 kmh 30.08 in1018.6 mb 0.00 in0.0 mm 0.00 in0.0 mm 0.00 in0.0 mm
03:07 PM 89.2°F31.8°C 52.9°F11.6°C 29% 5.4 mph NW8.7 kmh NW 8.5 mph13.7 kmh 30.07 in1018.3 mb 0.00 in0.0 mm 0.00 in0.0 mm 0.00 in0.0 mm
03:10 PM 88.9°F31.6°C 52.5°F11.4°C 29% 4.9 mph W7.9 kmh W 12.3 mph19.8 kmh 30.08 in1018.6 mb 0.00 in0.0 mm 0.00 in0.0 mm 0.00 in0.0 mm
03:12 PM 88.7°F31.5°C 54.1°F12.3°C 31% 4.9 mph WNW7.9 kmh WNW 17.0 mph27.4 kmh 30.08 in1018.6 mb 0.00 in0.0 mm 0.00 in0.0 mm 0.00 in0.0 mm
03:14 PM 88.7°F31.5°C 54.1°F12.3°C 31% 5.1 mph 8.2 kmh 8.5 mph13.7 kmh 30.08 in1018.6 mb 0.00 in0.0 mm 0.00 in0.0 mm 0.00 in0.0 mm
03:16 PM 88.7°F31.5°C 54.1°F12.3°C 31% 5.6 mph 9.0 kmh 11.0 mph17.7 kmh 30.08 in1018.6 mb 0.00 in0.0 mm 0.00 in0.0 mm 0.00 in0.0 mm
03:19 PM 88.9°F31.6°C 54.3°F12.4°C 31% 4.3 mph WNW6.9 kmh WNW 5.4 mph8.7 kmh 30.08 in1018.6 mb 0.00 in0.0 mm 0.00 in0.0 mm 0.00 in0.0 mm
03:21 PM 88.7°F31.5°C 52.3°F11.3°C 29% 4.7 mph NNW7.6 kmh NNW 10.1 mph16.3 kmh 30.08 in1018.6 mb 0.00 in0.0 mm 0.00 in0.0 mm 0.00 in0.0 mm
03:23 PM 88.3°F31.3°C 53.8°F12.1°C 31% 6.0 mph NNE9.7 kmh NNE 11.4 mph18.3 kmh 30.08 in1018.6 mb 0.00 in0.0 mm 0.00 in0.0 mm 0.00 in0.0 mm
03:25 PM 88.3°F31.3°C 53.8°F12.1°C 31% 3.8 mph WNW6.1 kmh WNW 3.8 mph6.1 kmh 30.07 in1018.3 mb 0.00 in0.0 mm 0.00 in0.0 mm 0.00 in0.0 mm
03:28 PM 88.3°F31.3°C 54.7°F12.6°C 32% 4.7 mph SSW7.6 kmh SSW 13.0 mph20.9 kmh 30.07 in1018.3 mb 0.00 in0.0 mm 0.00 in0.0 mm 0.00 in0.0 mm
03:30 PM 88.3°F31.3°C 53.8°F12.1°C 31% 3.4 mph NW5.5 kmh NW 4.7 mph7.6 kmh 30.07 in1018.3 mb 0.00 in0.0 mm 0.00 in0.0 mm 0.00 in0.0 mm
03:32 PM 88.3°F31.3°C 53.8°F12.1°C 31% 4.3 mph 6.9 kmh 7.2 mph11.6 kmh 30.07 in1018.3 mb 0.00 in0.0 mm 0.00 in0.0 mm 0.00 in0.0 mm
03:34 PM 88.3°F31.3°C 53.8°F12.1°C 31% 5.1 mph NNE8.2 kmh NNE 10.1 mph16.3 kmh 30.08 in1018.6 mb 0.00 in0.0 mm 0.00 in0.0 mm 0.00 in0.0 mm
03:37 PM 88.2°F31.2°C 54.5°F12.5°C 32% 5.8 mph W9.3 kmh W 11.9 mph19.2 kmh 30.08 in1018.6 mb 0.00 in0.0 mm 0.00 in0.0 mm 0.00 in0.0 mm
03:39 PM 88.0°F31.1°C 54.5°F12.5°C 32% 5.8 mph NE9.3 kmh NE 8.1 mph13.0 kmh 30.08 in1018.6 mb 0.00 in0.0 mm 0.00 in0.0 mm 0.00 in0.0 mm
03:41 PM 87.8°F31.0°C 54.3°F12.4°C 32% 5.6 mph NE9.0 kmh NE 12.1 mph19.5 kmh 30.08 in1018.6 mb 0.00 in0.0 mm 0.00 in0.0 mm 0.00 in0.0 mm
03:43 PM 87.6°F30.9°C 54.1°F12.3°C 32% 5.6 mph WNW9.0 kmh WNW 14.5 mph23.3 kmh 30.08 in1018.6 mb 0.00 in0.0 mm 0.00 in0.0 mm 0.00 in0.0 mm
03:45 PM 87.6°F30.9°C 54.1°F12.3°C 32% 5.4 mph SW8.7 kmh SW 10.1 mph16.3 kmh 30.07 in1018.3 mb 0.00 in0.0 mm 0.00 in0.0 mm 0.00 in0.0 mm
03:47 PM 87.6°F30.9°C 54.1°F12.3°C 32% 5.6 mph NNE9.0 kmh NNE 8.9 mph14.3 kmh 30.08 in1018.6 mb 0.00 in0.0 mm 0.00 in0.0 mm 0.00 in0.0 mm
03:49 PM 87.6°F30.9°C 54.1°F12.3°C 32% 5.6 mph NNE9.0 kmh NNE 8.7 mph14.0 kmh 30.08 in1018.6 mb 0.00 in0.0 mm 0.00 in0.0 mm 0.00 in0.0 mm
03:52 PM 87.6°F30.9°C 55.0°F12.8°C 33% 5.8 mph NW9.3 kmh NW 11.4 mph18.3 kmh 30.08 in1018.6 mb 0.00 in0.0 mm 0.00 in0.0 mm 0.00 in0.0 mm
03:54 PM 87.6°F30.9°C 54.1°F12.3°C 32% 5.8 mph SW9.3 kmh SW 8.9 mph14.3 kmh 30.08 in1018.6 mb 0.00 in0.0 mm 0.00 in0.0 mm 0.00 in0.0 mm
03:56 PM 87.4°F30.8°C 54.9°F12.7°C 33% 5.8 mph NNW9.3 kmh NNW 10.3 mph16.6 kmh 30.08 in1018.6 mb 0.00 in0.0 mm 0.00 in0.0 mm 0.00 in0.0 mm
03:58 PM 87.1°F30.6°C 54.5°F12.5°C 33% 5.4 mph NNW8.7 kmh NNW 13.4 mph21.6 kmh 30.07 in1018.3 mb 0.00 in0.0 mm 0.00 in0.0 mm 0.00 in0.0 mm
04:01 PM 87.6°F30.9°C 55.0°F12.8°C 33% 5.1 mph NNE8.2 kmh NNE 11.4 mph18.3 kmh 30.08 in1018.6 mb 0.00 in0.0 mm 0.00 in0.0 mm 0.00 in0.0 mm
04:03 PM 87.4°F30.8°C 54.9°F12.7°C 33% 5.4 mph NNE8.7 kmh NNE 8.7 mph14.0 kmh 30.08 in1018.6 mb 0.00 in0.0 mm 0.00 in0.0 mm 0.00 in0.0 mm
04:05 PM 87.4°F30.8°C 54.9°F12.7°C 33% 3.6 mph WNW5.8 kmh WNW 3.4 mph5.5 kmh 30.08 in1018.6 mb 0.00 in0.0 mm 0.00 in0.0 mm 0.00 in0.0 mm
04:07 PM 87.4°F30.8°C 54.9°F12.7°C 33% 4.0 mph W6.4 kmh W 8.1 mph13.0 kmh 30.08 in1018.6 mb 0.00 in0.0 mm 0.00 in0.0 mm 0.00 in0.0 mm
04:09 PM 87.4°F30.8°C 54.0°F12.2°C 32% 4.9 mph NNW7.9 kmh NNW 9.6 mph15.4 kmh 30.08 in1018.6 mb 0.00 in0.0 mm 0.00 in0.0 mm 0.00 in0.0 mm
04:11 PM 87.4°F30.8°C 54.0°F12.2°C 32% 4.9 mph NW7.9 kmh NW 6.5 mph10.5 kmh 30.08 in1018.6 mb 0.00 in0.0 mm 0.00 in0.0 mm 0.00 in0.0 mm
04:14 PM 87.4°F30.8°C 54.0°F12.2°C 32% 4.0 mph NNW6.4 kmh NNW 7.8 mph12.6 kmh 30.08 in1018.6 mb 0.00 in0.0 mm 0.00 in0.0 mm 0.00 in0.0 mm
04:16 PM 87.4°F30.8°C 54.9°F12.7°C 33% 4.0 mph SSW6.4 kmh SSW 7.2 mph11.6 kmh 30.08 in1018.6 mb 0.00 in0.0 mm 0.00 in0.0 mm 0.00 in0.0 mm
04:18 PM 87.3°F30.7°C 54.7°F12.6°C 33% 4.9 mph SW7.9 kmh SW 10.3 mph16.6 kmh 30.08 in1018.6 mb 0.00 in0.0 mm 0.00 in0.0 mm 0.00 in0.0 mm
04:20 PM 87.1°F30.6°C 54.5°F12.5°C 33% 4.3 mph NNE6.9 kmh NNE 5.8 mph9.3 kmh 30.09 in1019.0 mb 0.00 in0.0 mm 0.00 in0.0 mm 0.00 in0.0 mm
04:22 PM 86.9°F30.5°C 54.3°F12.4°C 33% 4.5 mph NNW7.2 kmh NNW 11.4 mph18.3 kmh 30.09 in1019.0 mb 0.00 in0.0 mm 0.00 in0.0 mm 0.00 in0.0 mm
04:24 PM 86.9°F30.5°C 54.3°F12.4°C 33% 4.0 mph WNW6.4 kmh WNW 5.1 mph8.2 kmh 30.08 in1018.6 mb 0.00 in0.0 mm 0.00 in0.0 mm 0.00 in0.0 mm
04:27 PM 86.9°F30.5°C 54.3°F12.4°C 33% 4.3 mph NW6.9 kmh NW 9.2 mph14.8 kmh 30.09 in1019.0 mb 0.00 in0.0 mm 0.00 in0.0 mm 0.00 in0.0 mm
04:29 PM 86.7°F30.4°C 54.1°F12.3°C 33% 5.6 mph 9.0 kmh 14.8 mph23.8 kmh 30.09 in1019.0 mb 0.00 in0.0 mm 0.00 in0.0 mm 0.00 in0.0 mm
04:31 PM 86.7°F30.4°C 54.1°F12.3°C 33% 5.4 mph SSE8.7 kmh SSE 10.7 mph17.2 kmh 30.09 in1019.0 mb 0.00 in0.0 mm 0.00 in0.0 mm 0.00 in0.0 mm
04:34 PM 86.5°F30.3°C 54.0°F12.2°C 33% 5.4 mph NW8.7 kmh NW 11.6 mph18.7 kmh 30.09 in1019.0 mb 0.00 in0.0 mm 0.00 in0.0 mm 0.00 in0.0 mm
04:36 PM 86.5°F30.3°C 54.0°F12.2°C 33% 5.1 mph NNW8.2 kmh NNW 10.7 mph17.2 kmh 30.09 in1019.0 mb 0.00 in0.0 mm 0.00 in0.0 mm 0.00 in0.0 mm
04:38 PM 86.5°F30.3°C 54.0°F12.2°C 33% 4.7 mph NNW7.6 kmh NNW 9.6 mph15.4 kmh 30.09 in1019.0 mb 0.00 in0.0 mm 0.00 in0.0 mm 0.00 in0.0 mm
04:40 PM 86.2°F30.1°C 53.8°F12.1°C 33% 4.3 mph 6.9 kmh 9.8 mph15.8 kmh 30.09 in1019.0 mb 0.00 in0.0 mm 0.00 in0.0 mm 0.00 in0.0 mm
04:42 PM 86.4°F30.2°C 53.8°F12.1°C 33% 3.4 mph NW5.5 kmh NW 4.3 mph6.9 kmh 30.09 in1019.0 mb 0.00 in0.0 mm 0.00 in0.0 mm 0.00 in0.0 mm
04:44 PM 86.5°F30.3°C 54.0°F12.2°C 33% 3.8 mph NNW6.1 kmh NNW 10.7 mph17.2 kmh 30.09 in1019.0 mb 0.00 in0.0 mm 0.00 in0.0 mm 0.00 in0.0 mm
04:47 PM 86.5°F30.3°C 54.0°F12.2°C 33% 4.0 mph NNE6.4 kmh NNE 6.7 mph10.8 kmh 30.09 in1019.0 mb 0.00 in0.0 mm 0.00 in0.0 mm 0.00 in0.0 mm
04:49 PM 86.5°F30.3°C 53.2°F11.8°C 32% 5.8 mph 9.3 kmh 11.9 mph19.2 kmh 30.09 in1019.0 mb 0.00 in0.0 mm 0.00 in0.0 mm 0.00 in0.0 mm
04:51 PM 86.2°F30.1°C 53.8°F12.1°C 33% 5.4 mph 8.7 kmh 6.7 mph10.8 kmh 30.09 in1019.0 mb 0.00 in0.0 mm 0.00 in0.0 mm 0.00 in0.0 mm
04:53 PM 85.8°F29.9°C 53.4°F11.9°C 33% 4.7 mph SSE7.6 kmh SSE 10.1 mph16.3 kmh 30.09 in1019.0 mb 0.00 in0.0 mm 0.00 in0.0 mm 0.00 in0.0 mm
04:55 PM 86.0°F30.0°C 53.6°F12.0°C 33% 3.8 mph NNE6.1 kmh NNE 5.4 mph8.7 kmh 30.09 in1019.0 mb 0.00 in0.0 mm 0.00 in0.0 mm 0.00 in0.0 mm
04:58 PM 86.2°F30.1°C 53.8°F12.1°C 33% 4.0 mph 6.4 kmh 10.5 mph16.9 kmh 30.09 in1019.0 mb 0.00 in0.0 mm 0.00 in0.0 mm 0.00 in0.0 mm
05:00 PM 86.4°F30.2°C 53.8°F12.1°C 33% 4.3 mph NNW6.9 kmh NNW 8.1 mph13.0 kmh 30.09 in1019.0 mb 0.00 in0.0 mm 0.00 in0.0 mm 0.00 in0.0 mm
05:02 PM 86.2°F30.1°C 53.8°F12.1°C 33% 4.3 mph S6.9 kmh S 10.5 mph16.9 kmh 30.09 in1019.0 mb 0.00 in0.0 mm 0.00 in0.0 mm 0.00 in0.0 mm
05:04 PM 86.2°F30.1°C 53.8°F12.1°C 33% 4.7 mph NW7.6 kmh NW 11.2 mph18.0 kmh 30.09 in1019.0 mb 0.00 in0.0 mm 0.00 in0.0 mm 0.00 in0.0 mm
05:06 PM 85.8°F29.9°C 53.4°F11.9°C 33% 5.6 mph 9.0 kmh 9.8 mph15.8 kmh 30.09 in1019.0 mb 0.00 in0.0 mm 0.00 in0.0 mm 0.00 in0.0 mm
05:09 PM 85.6°F29.8°C 54.0°F12.2°C 34% 4.9 mph SW7.9 kmh SW 12.1 mph19.5 kmh 30.09 in1019.0 mb 0.00 in0.0 mm 0.00 in0.0 mm 0.00 in0.0 mm
05:11 PM 85.6°F29.8°C 54.0°F12.2°C 34% 4.9 mph NNE7.9 kmh NNE 8.5 mph13.7 kmh 30.09 in1019.0 mb 0.00 in0.0 mm 0.00 in0.0 mm 0.00 in0.0 mm
05:13 PM 85.6°F29.8°C 53.2°F11.8°C 33% 4.7 mph 7.6 kmh 11.6 mph18.7 kmh 30.09 in1019.0 mb 0.00 in0.0 mm 0.00 in0.0 mm 0.00 in0.0 mm
05:15 PM 85.3°F29.6°C 52.9°F11.6°C 33% 5.4 mph W8.7 kmh W 11.6 mph18.7 kmh 30.09 in1019.0 mb 0.00 in0.0 mm 0.00 in0.0 mm 0.00 in0.0 mm
05:17 PM 85.3°F29.6°C 52.9°F11.6°C 33% 3.8 mph NNE6.1 kmh NNE 7.2 mph11.6 kmh 30.09 in1019.0 mb 0.00 in0.0 mm 0.00 in0.0 mm 0.00 in0.0 mm
05:20 PM 85.3°F29.6°C 52.9°F11.6°C 33% 4.7 mph 7.6 kmh 12.3 mph19.8 kmh 30.09 in1019.0 mb 0.00 in0.0 mm 0.00 in0.0 mm 0.00 in0.0 mm
05:22 PM 84.9°F29.4°C 52.5°F11.4°C 33% 6.3 mph NNW10.1 kmh NNW 9.6 mph15.4 kmh 30.09 in1019.0 mb 0.00 in0.0 mm 0.00 in0.0 mm 0.00 in0.0 mm
05:24 PM 84.9°F29.4°C 53.4°F11.9°C 34% 5.4 mph 8.7 kmh 8.5 mph13.7 kmh 30.10 in1019.3 mb 0.00 in0.0 mm 0.00 in0.0 mm 0.00 in0.0 mm
05:26 PM 84.7°F29.3°C 53.2°F11.8°C 34% 6.5 mph NW10.5 kmh NW 13.0 mph20.9 kmh 30.10 in1019.3 mb 0.00 in0.0 mm 0.00 in0.0 mm 0.00 in0.0 mm
05:29 PM 84.4°F29.1°C 53.8°F12.1°C 35% 6.0 mph NE9.7 kmh NE 13.0 mph20.9 kmh 30.10 in1019.3 mb 0.00 in0.0 mm 0.00 in0.0 mm 0.00 in0.0 mm
05:31 PM 84.0°F28.9°C 53.4°F11.9°C 35% 5.8 mph NNW9.3 kmh NNW 9.2 mph14.8 kmh 30.10 in1019.3 mb 0.00 in0.0 mm 0.00 in0.0 mm 0.00 in0.0 mm
05:33 PM 84.0°F28.9°C 53.4°F11.9°C 35% 5.8 mph 9.3 kmh 9.8 mph15.8 kmh 30.09 in1019.0 mb 0.00 in0.0 mm 0.00 in0.0 mm 0.00 in0.0 mm
05:35 PM 84.0°F28.9°C 53.4°F11.9°C 35% 4.7 mph NNW7.6 kmh NNW 8.9 mph14.3 kmh 30.10 in1019.3 mb 0.00 in0.0 mm 0.00 in0.0 mm 0.00 in0.0 mm
05:38 PM 84.0°F28.9°C 54.1°F12.3°C 36% 4.0 mph 6.4 kmh 4.5 mph7.2 kmh 30.10 in1019.3 mb 0.00 in0.0 mm 0.00 in0.0 mm 0.00 in0.0 mm
05:40 PM 84.0°F28.9°C 54.1°F12.3°C 36% 3.4 mph WNW5.5 kmh WNW 6.9 mph11.1 kmh 30.10 in1019.3 mb 0.00 in0.0 mm 0.00 in0.0 mm 0.00 in0.0 mm
05:42 PM 84.0°F28.9°C 53.4°F11.9°C 35% 3.6 mph WSW5.8 kmh WSW 7.2 mph11.6 kmh 30.10 in1019.3 mb 0.00 in0.0 mm 0.00 in0.0 mm 0.00 in0.0 mm
05:44 PM 84.0°F28.9°C 53.4°F11.9°C 35% 3.4 mph WNW5.5 kmh WNW 7.4 mph11.9 kmh 30.11 in1019.6 mb 0.00 in0.0 mm 0.00 in0.0 mm 0.00 in0.0 mm
05:46 PM 84.0°F28.9°C 53.4°F11.9°C 35% 3.1 mph NW5.0 kmh NW 5.4 mph8.7 kmh 30.10 in1019.3 mb 0.00 in0.0 mm 0.00 in0.0 mm 0.00 in0.0 mm
05:49 PM 84.0°F28.9°C 52.7°F11.5°C 34% 3.1 mph NE5.0 kmh NE 5.8 mph9.3 kmh 30.10 in1019.3 mb 0.00 in0.0 mm 0.00 in0.0 mm 0.00 in0.0 mm
05:51 PM 83.8°F28.8°C 53.2°F11.8°C 35% 3.4 mph NNE5.5 kmh NNE 8.3 mph13.4 kmh 30.11 in1019.6 mb 0.00 in0.0 mm 0.00 in0.0 mm 0.00 in0.0 mm
05:53 PM 83.7°F28.7°C 53.1°F11.7°C 35% 3.1 mph WSW5.0 kmh WSW 6.0 mph9.7 kmh 30.11 in1019.6 mb 0.00 in0.0 mm 0.00 in0.0 mm 0.00 in0.0 mm
05:55 PM 83.7°F28.7°C 53.1°F11.7°C 35% 3.4 mph NNW5.5 kmh NNW 8.5 mph13.7 kmh 30.11 in1019.6 mb 0.00 in0.0 mm 0.00 in0.0 mm 0.00 in0.0 mm
05:58 PM 83.5°F28.6°C 52.9°F11.6°C 35% 3.4 mph NNW5.5 kmh NNW 5.4 mph8.7 kmh 30.11 in1019.6 mb 0.00 in0.0 mm 0.00 in0.0 mm 0.00 in0.0 mm
06:00 PM 83.3°F28.5°C 52.9°F11.6°C 35% 3.6 mph 5.8 kmh 7.2 mph11.6 kmh 30.11 in1019.6 mb 0.00 in0.0 mm 0.00 in0.0 mm 0.00 in0.0 mm
06:02 PM 83.1°F28.4°C 54.1°F12.3°C 37% 4.0 mph 6.4 kmh 9.4 mph15.1 kmh 30.11 in1019.6 mb 0.00 in0.0 mm 0.00 in0.0 mm 0.00 in0.0 mm
06:04 PM 82.8°F28.2°C 53.8°F12.1°C 37% 3.6 mph SSW5.8 kmh SSW 5.8 mph9.3 kmh 30.11 in1019.6 mb 0.00 in0.0 mm 0.00 in0.0 mm 0.00 in0.0 mm
06:06 PM 82.8°F28.2°C 53.8°F12.1°C 37% 3.1 mph W5.0 kmh W 5.6 mph9.0 kmh 30.11 in1019.6 mb 0.00 in0.0 mm 0.00 in0.0 mm 0.00 in0.0 mm
06:09 PM 82.8°F28.2°C 53.8°F12.1°C 37% 2.9 mph NNW4.7 kmh NNW 4.0 mph6.4 kmh 30.11 in1019.6 mb 0.00 in0.0 mm 0.00 in0.0 mm 0.00 in0.0 mm
06:11 PM 82.6°F28.1°C 53.6°F12.0°C 37% 2.9 mph NNW4.7 kmh NNW 7.8 mph12.6 kmh 30.11 in1019.6 mb 0.00 in0.0 mm 0.00 in0.0 mm 0.00 in0.0 mm
06:13 PM 82.6°F28.1°C 54.3°F12.4°C 38% 2.7 mph NNE4.3 kmh NNE 4.3 mph6.9 kmh 30.11 in1019.6 mb 0.00 in0.0 mm 0.00 in0.0 mm 0.00 in0.0 mm
06:15 PM 82.6°F28.1°C 54.3°F12.4°C 38% 2.5 mph NW4.0 kmh NW 5.1 mph8.2 kmh 30.11 in1019.6 mb 0.00 in0.0 mm 0.00 in0.0 mm 0.00 in0.0 mm
06:18 PM 82.6°F28.1°C 54.3°F12.4°C 38% 2.7 mph NNE4.3 kmh NNE 5.8 mph9.3 kmh 30.11 in1019.6 mb 0.00 in0.0 mm 0.00 in0.0 mm 0.00 in0.0 mm
06:20 PM 82.2°F27.9°C 54.1°F12.3°C 38% 2.7 mph 4.3 kmh 7.4 mph11.9 kmh 30.11 in1019.6 mb 0.00 in0.0 mm 0.00 in0.0 mm 0.00 in0.0 mm
06:22 PM 82.2°F27.9°C 54.1°F12.3°C 38% 2.9 mph 4.7 kmh 4.9 mph7.9 kmh 30.11 in1019.6 mb 0.00 in0.0 mm 0.00 in0.0 mm 0.00 in0.0 mm
06:24 PM 82.2°F27.9°C 54.1°F12.3°C 38% 2.5 mph NW4.0 kmh NW 6.5 mph10.5 kmh 30.11 in1019.6 mb 0.00 in0.0 mm 0.00 in0.0 mm 0.00 in0.0 mm
06:26 PM 82.0°F27.8°C 54.0°F12.2°C 38% 2.7 mph NW4.3 kmh NW 4.0 mph6.4 kmh 30.11 in1019.6 mb 0.00 in0.0 mm 0.00 in0.0 mm 0.00 in0.0 mm
06:28 PM 82.0°F27.8°C 53.2°F11.8°C 37% 2.2 mph W3.5 kmh W 3.4 mph5.5 kmh 30.11 in1019.6 mb 0.00 in0.0 mm 0.00 in0.0 mm 0.00 in0.0 mm
06:31 PM 82.0°F27.8°C 53.2°F11.8°C 37% 2.0 mph SSW3.2 kmh SSW 5.1 mph8.2 kmh 30.11 in1019.6 mb 0.00 in0.0 mm 0.00 in0.0 mm 0.00 in0.0 mm
06:33 PM 82.0°F27.8°C 53.2°F11.8°C 37% 2.5 mph NW4.0 kmh NW 4.0 mph6.4 kmh 30.11 in1019.6 mb 0.00 in0.0 mm 0.00 in0.0 mm 0.00 in0.0 mm
06:35 PM 81.7°F27.6°C 53.6°F12.0°C 38% 2.7 mph NW4.3 kmh NW 4.0 mph6.4 kmh 30.11 in1019.6 mb 0.00 in0.0 mm 0.00 in0.0 mm 0.00 in0.0 mm
06:37 PM 81.7°F27.6°C 54.3°F12.4°C 39% 2.9 mph 4.7 kmh 5.8 mph9.3 kmh 30.11 in1019.6 mb 0.00 in0.0 mm 0.00 in0.0 mm 0.00 in0.0 mm
06:39 PM 81.3°F27.4°C 54.0°F12.2°C 39% 2.7 mph W4.3 kmh W 4.5 mph7.2 kmh 30.11 in1019.6 mb 0.00 in0.0 mm 0.00 in0.0 mm 0.00 in0.0 mm
06:42 PM 81.3°F27.4°C 54.0°F12.2°C 39% 2.5 mph NNW4.0 kmh NNW 4.9 mph7.9 kmh 30.11 in1019.6 mb 0.00 in0.0 mm 0.00 in0.0 mm 0.00 in0.0 mm
06:44 PM 81.1°F27.3°C 53.1°F11.7°C 38% 2.2 mph W3.5 kmh W 3.4 mph5.5 kmh 30.11 in1019.6 mb 0.00 in0.0 mm 0.00 in0.0 mm 0.00 in0.0 mm
06:46 PM 81.1°F27.3°C 53.1°F11.7°C 38% 2.0 mph WNW3.2 kmh WNW 3.6 mph5.8 kmh 30.11 in1019.6 mb 0.00 in0.0 mm 0.00 in0.0 mm 0.00 in0.0 mm
06:48 PM 81.1°F27.3°C 52.3°F11.3°C 37% 2.5 mph 4.0 kmh 3.8 mph6.1 kmh 30.11 in1019.6 mb 0.00 in0.0 mm 0.00 in0.0 mm 0.00 in0.0 mm
06:50 PM 81.0°F27.2°C 52.2°F11.2°C 37% 2.9 mph SW4.7 kmh SW 4.7 mph7.6 kmh 30.11 in1019.6 mb 0.00 in0.0 mm 0.00 in0.0 mm 0.00 in0.0 mm
06:53 PM 80.8°F27.1°C 52.2°F11.2°C 37% 2.5 mph 4.0 kmh 4.3 mph6.9 kmh 30.11 in1019.6 mb 0.00 in0.0 mm 0.00 in0.0 mm 0.00 in0.0 mm
06:55 PM 80.8°F27.1°C 52.2°F11.2°C 37% 2.2 mph WNW3.5 kmh WNW 3.8 mph6.1 kmh 30.12 in1020.0 mb 0.00 in0.0 mm 0.00 in0.0 mm 0.00 in0.0 mm
06:57 PM 80.8°F27.1°C 52.2°F11.2°C 37% 1.8 mph NNW2.9 kmh NNW 2.5 mph4.0 kmh 30.11 in1019.6 mb 0.00 in0.0 mm 0.00 in0.0 mm 0.00 in0.0 mm
06:59 PM 80.8°F27.1°C 52.2°F11.2°C 37% 1.6 mph W2.6 kmh W 3.6 mph5.8 kmh 30.11 in1019.6 mb 0.00 in0.0 mm 0.00 in0.0 mm 0.00 in0.0 mm
07:02 PM 80.8°F27.1°C 52.2°F11.2°C 37% 1.8 mph ENE2.9 kmh ENE 4.5 mph7.2 kmh 30.11 in1019.6 mb 0.00 in0.0 mm 0.00 in0.0 mm 0.00 in0.0 mm
07:04 PM 80.8°F27.1°C 52.9°F11.6°C 38% 2.0 mph S3.2 kmh S 5.1 mph8.2 kmh 30.12 in1020.0 mb 0.00 in0.0 mm 0.00 in0.0 mm 0.00 in0.0 mm
07:06 PM 80.8°F27.1°C 53.6°F12.0°C 39% 2.2 mph 3.5 kmh 6.9 mph11.1 kmh 30.12 in1020.0 mb 0.00 in0.0 mm 0.00 in0.0 mm 0.00 in0.0 mm
07:08 PM 80.4°F26.9°C 54.0°F12.2°C 40% 2.9 mph NNE4.7 kmh NNE 7.6 mph12.2 kmh 30.12 in1020.0 mb 0.00 in0.0 mm 0.00 in0.0 mm 0.00 in0.0 mm
07:11 PM 80.2°F26.8°C 54.3°F12.4°C 41% 2.9 mph E4.7 kmh E 5.8 mph9.3 kmh 30.12 in1020.0 mb 0.00 in0.0 mm 0.00 in0.0 mm 0.00 in0.0 mm
07:13 PM 80.1°F26.7°C 54.3°F12.4°C 41% 2.5 mph NNE4.0 kmh NNE 4.7 mph7.6 kmh 30.12 in1020.0 mb 0.00 in0.0 mm 0.00 in0.0 mm 0.00 in0.0 mm
07:15 PM 79.9°F26.6°C 54.7°F12.6°C 42% 2.9 mph NW4.7 kmh NW 6.9 mph11.1 kmh 30.12 in1020.0 mb 0.00 in0.0 mm 0.00 in0.0 mm 0.00 in0.0 mm
07:17 PM 79.7°F26.5°C 54.0°F12.2°C 41% 2.2 mph W3.5 kmh W 3.6 mph5.8 kmh 30.12 in1020.0 mb 0.00 in0.0 mm 0.00 in0.0 mm 0.00 in0.0 mm
07:20 PM 79.5°F26.4°C 54.5°F12.5°C 42% 2.0 mph SSW3.2 kmh SSW 3.8 mph6.1 kmh 30.12 in1020.0 mb 0.00 in0.0 mm 0.00 in0.0 mm 0.00 in0.0 mm
07:22 PM 79.5°F26.4°C 54.5°F12.5°C 42% 1.6 mph NE2.6 kmh NE 2.5 mph4.0 kmh 30.13 in1020.3 mb 0.00 in0.0 mm 0.00 in0.0 mm 0.00 in0.0 mm
07:24 PM 79.3°F26.3°C 54.3°F12.4°C 42% 2.5 mph NNW4.0 kmh NNW 6.5 mph10.5 kmh 30.13 in1020.3 mb 0.00 in0.0 mm 0.00 in0.0 mm 0.00 in0.0 mm
07:26 PM 79.0°F26.1°C 54.5°F12.5°C 43% 3.4 mph NNW5.5 kmh NNW 7.6 mph12.2 kmh 30.12 in1020.0 mb 0.00 in0.0 mm 0.00 in0.0 mm 0.00 in0.0 mm
07:28 PM 78.6°F25.9°C 54.3°F12.4°C 43% 3.4 mph NNW5.5 kmh NNW 5.8 mph9.3 kmh 30.12 in1020.0 mb 0.00 in0.0 mm 0.00 in0.0 mm 0.00 in0.0 mm
07:31 PM 78.4°F25.8°C 54.7°F12.6°C 44% 3.1 mph SE5.0 kmh SE 6.0 mph9.7 kmh 30.13 in1020.3 mb 0.00 in0.0 mm 0.00 in0.0 mm 0.00 in0.0 mm
07:33 PM 78.1°F25.6°C 54.3°F12.4°C 44% 3.4 mph NW5.5 kmh NW 6.0 mph9.7 kmh 30.13 in1020.3 mb 0.00 in0.0 mm 0.00 in0.0 mm 0.00 in0.0 mm
07:35 PM 77.9°F25.5°C 53.6°F12.0°C 43% 2.5 mph NNW4.0 kmh NNW 4.3 mph6.9 kmh 30.13 in1020.3 mb 0.00 in0.0 mm 0.00 in0.0 mm 0.00 in0.0 mm
07:37 PM 77.5°F25.3°C 53.2°F11.8°C 43% 2.2 mph 3.5 kmh 3.1 mph5.0 kmh 30.13 in1020.3 mb 0.00 in0.0 mm 0.00 in0.0 mm 0.00 in0.0 mm
07:40 PM 77.5°F25.3°C 53.2°F11.8°C 43% 2.0 mph 3.2 kmh 4.0 mph6.4 kmh 30.13 in1020.3 mb 0.00 in0.0 mm 0.00 in0.0 mm 0.00 in0.0 mm
07:42 PM 77.4°F25.2°C 53.1°F11.7°C 43% 1.6 mph SSW2.6 kmh SSW 3.1 mph5.0 kmh 30.13 in1020.3 mb 0.00 in0.0 mm 0.00 in0.0 mm 0.00 in0.0 mm
07:44 PM 77.4°F25.2°C 53.1°F11.7°C 43% 2.0 mph 3.2 kmh 3.8 mph6.1 kmh 30.13 in1020.3 mb 0.00 in0.0 mm 0.00 in0.0 mm 0.00 in0.0 mm
07:46 PM 77.2°F25.1°C 52.9°F11.6°C 43% 1.1 mph E1.8 kmh E 0.9 mph1.4 kmh 30.13 in1020.3 mb 0.00 in0.0 mm 0.00 in0.0 mm 0.00 in0.0 mm
07:49 PM 77.4°F25.2°C 53.1°F11.7°C 43% 1.8 mph 2.9 kmh 4.0 mph6.4 kmh 30.13 in1020.3 mb 0.00 in0.0 mm 0.00 in0.0 mm 0.00 in0.0 mm
07:51 PM 77.0°F25.0°C 52.9°F11.6°C 43% 1.3 mph 2.1 kmh 3.1 mph5.0 kmh 30.13 in1020.3 mb 0.00 in0.0 mm 0.00 in0.0 mm 0.00 in0.0 mm
07:53 PM 77.2°F25.1°C 52.9°F11.6°C 43% 2.0 mph 3.2 kmh 5.1 mph8.2 kmh 30.13 in1020.3 mb 0.00 in0.0 mm 0.00 in0.0 mm 0.00 in0.0 mm
07:55 PM 76.8°F24.9°C 52.0°F11.1°C 42% 1.6 mph NNE2.6 kmh NNE 2.9 mph4.7 kmh 30.13 in1020.3 mb 0.00 in0.0 mm 0.00 in0.0 mm 0.00 in0.0 mm
07:58 PM 76.8°F24.9°C 52.0°F11.1°C 42% 1.1 mph NNW1.8 kmh NNW 2.0 mph3.2 kmh 30.13 in1020.3 mb 0.00 in0.0 mm 0.00 in0.0 mm 0.00 in0.0 mm
08:00 PM 76.8°F24.9°C 52.0°F11.1°C 42% 0.9 mph NE1.4 kmh NE 1.3 mph2.1 kmh 30.13 in1020.3 mb 0.00 in0.0 mm 0.00 in0.0 mm 0.00 in0.0 mm
08:02 PM 76.6°F24.8°C 51.8°F11.0°C 42% 0.4 mph NNW0.6 kmh NNW 0.9 mph1.4 kmh 30.13 in1020.3 mb 0.00 in0.0 mm 0.00 in0.0 mm 0.00 in0.0 mm
08:04 PM 76.6°F24.8°C 51.8°F11.0°C 42% 0.4 mph 0.6 kmh 0.9 mph1.4 kmh 30.13 in1020.3 mb 0.00 in0.0 mm 0.00 in0.0 mm 0.00 in0.0 mm
08:06 PM 76.3°F24.6°C 51.4°F10.8°C 42% 1.1 mph NNE1.8 kmh NNE 2.9 mph4.7 kmh 30.13 in1020.3 mb 0.00 in0.0 mm 0.00 in0.0 mm 0.00 in0.0 mm
08:08 PM 76.1°F24.5°C 52.0°F11.1°C 43% 1.3 mph 2.1 kmh 3.6 mph5.8 kmh 30.13 in1020.3 mb 0.00 in0.0 mm 0.00 in0.0 mm 0.00 in0.0 mm
08:11 PM 75.9°F24.4°C 51.8°F11.0°C 43% 1.3 mph NNE2.1 kmh NNE 2.7 mph4.3 kmh 30.14 in1020.7 mb 0.00 in0.0 mm 0.00 in0.0 mm 0.00 in0.0 mm
08:13 PM 75.9°F24.4°C 51.8°F11.0°C 43% 0.9 mph NW1.4 kmh NW 1.6 mph2.6 kmh 30.13 in1020.3 mb 0.00 in0.0 mm 0.00 in0.0 mm 0.00 in0.0 mm
08:15 PM 75.7°F24.3°C 51.6°F10.9°C 43% 0.4 mph NNW0.6 kmh NNW -- 30.13 in1020.3 mb 0.00 in0.0 mm 0.00 in0.0 mm 0.00 in0.0 mm
08:17 PM 75.7°F24.3°C 51.6°F10.9°C 43% 0.2 mph NNW0.3 kmh NNW -- 30.13 in1020.3 mb 0.00 in0.0 mm 0.00 in0.0 mm 0.00 in0.0 mm
08:19 PM 75.7°F24.3°C 51.6°F10.9°C 43% 0.4 mph NNE0.6 kmh NNE 0.9 mph1.4 kmh 30.13 in1020.3 mb 0.00 in0.0 mm 0.00 in0.0 mm 0.00 in0.0 mm
08:22 PM 75.6°F24.2°C 52.2°F11.2°C 44% 0.2 mph WNW0.3 kmh WNW 0.9 mph1.4 kmh 30.13 in1020.3 mb 0.00 in0.0 mm 0.00 in0.0 mm 0.00 in0.0 mm
08:24 PM 75.6°F24.2°C 52.2°F11.2°C 44% 0.4 mph E0.6 kmh E 2.0 mph3.2 kmh 30.13 in1020.3 mb 0.00 in0.0 mm 0.00 in0.0 mm 0.00 in0.0 mm
08:26 PM 75.6°F24.2°C 52.2°F11.2°C 44% 0.4 mph NNE0.6 kmh NNE 2.2 mph3.5 kmh 30.13 in1020.3 mb 0.00 in0.0 mm 0.00 in0.0 mm 0.00 in0.0 mm
08:28 PM 75.4°F24.1°C 52.0°F11.1°C 44% 0.7 mph E1.1 kmh E 1.6 mph2.6 kmh 30.13 in1020.3 mb 0.00 in0.0 mm 0.00 in0.0 mm 0.00 in0.0 mm
08:31 PM 75.4°F24.1°C 52.5°F11.4°C 45% 1.1 mph E1.8 kmh E 1.8 mph2.9 kmh 30.13 in1020.3 mb 0.00 in0.0 mm 0.00 in0.0 mm 0.00 in0.0 mm
08:33 PM 75.4°F24.1°C 52.5°F11.4°C 45% 0.7 mph SE1.1 kmh SE 1.1 mph1.8 kmh 30.14 in1020.7 mb 0.00 in0.0 mm 0.00 in0.0 mm 0.00 in0.0 mm
08:35 PM 75.2°F24.0°C 52.3°F11.3°C 45% 0.7 mph SSE1.1 kmh SSE 1.1 mph1.8 kmh 30.13 in1020.3 mb 0.00 in0.0 mm 0.00 in0.0 mm 0.00 in0.0 mm
08:37 PM 75.0°F23.9°C 52.2°F11.2°C 45% 0.4 mph SE0.6 kmh SE 0.9 mph1.4 kmh 30.13 in1020.3 mb 0.00 in0.0 mm 0.00 in0.0 mm 0.00 in0.0 mm
08:39 PM 75.0°F23.9°C 52.2°F11.2°C 45% 0.2 mph SE0.3 kmh SE -- 30.14 in1020.7 mb 0.00 in0.0 mm 0.00 in0.0 mm 0.00 in0.0 mm
08:41 PM 75.0°F23.9°C 52.2°F11.2°C 45% 0.2 mph SE0.3 kmh SE -- 30.14 in1020.7 mb 0.00 in0.0 mm 0.00 in0.0 mm 0.00 in0.0 mm
08:43 PM 75.0°F23.9°C 52.2°F11.2°C 45% 0.4 mph SSE0.6 kmh SSE 1.8 mph2.9 kmh 30.14 in1020.7 mb 0.00 in0.0 mm 0.00 in0.0 mm 0.00 in0.0 mm
08:46 PM 75.0°F23.9°C 52.2°F11.2°C 45% 0.4 mph SSE0.6 kmh SSE 1.3 mph2.1 kmh 30.14 in1020.7 mb 0.00 in0.0 mm 0.00 in0.0 mm 0.00 in0.0 mm
08:48 PM 74.8°F23.8°C 52.2°F11.2°C 45% 0.4 mph SSE0.6 kmh SSE 0.9 mph1.4 kmh 30.14 in1020.7 mb 0.00 in0.0 mm 0.00 in0.0 mm 0.00 in0.0 mm
08:50 PM 74.8°F23.8°C 52.2°F11.2°C 45% 0.4 mph ESE0.6 kmh ESE 0.9 mph1.4 kmh 30.14 in1020.7 mb 0.00 in0.0 mm 0.00 in0.0 mm 0.00 in0.0 mm
08:52 PM 74.8°F23.8°C 52.2°F11.2°C 45% 0.2 mph ESE0.3 kmh ESE 0.7 mph1.1 kmh 30.14 in1020.7 mb 0.00 in0.0 mm 0.00 in0.0 mm 0.00 in0.0 mm
08:54 PM 74.8°F23.8°C 52.2°F11.2°C 45% 0.2 mph SE0.3 kmh SE -- 30.14 in1020.7 mb 0.00 in0.0 mm 0.00 in0.0 mm 0.00 in0.0 mm
08:57 PM 74.7°F23.7°C 52.0°F11.1°C 45% 0.2 mph SE0.3 kmh SE -- 30.14 in1020.7 mb 0.00 in0.0 mm 0.00 in0.0 mm 0.00 in0.0 mm
08:59 PM 74.5°F23.6°C 51.8°F11.0°C 45% 0.2 mph SSE0.3 kmh SSE 0.9 mph1.4 kmh 30.14 in1020.7 mb 0.00 in0.0 mm 0.00 in0.0 mm 0.00 in0.0 mm
09:01 PM 74.5°F23.6°C 51.8°F11.0°C 45% 0.2 mph SE0.3 kmh SE 0.9 mph1.4 kmh 30.14 in1020.7 mb 0.00 in0.0 mm 0.00 in0.0 mm 0.00 in0.0 mm
09:03 PM 74.1°F23.4°C 52.0°F11.1°C 46% 1.1 mph SE1.8 kmh SE 2.2 mph3.5 kmh 30.14 in1020.7 mb 0.00 in0.0 mm 0.00 in0.0 mm 0.00 in0.0 mm
09:06 PM 73.9°F23.3°C 51.8°F11.0°C 46% 1.1 mph SE1.8 kmh SE 1.6 mph2.6 kmh 30.14 in1020.7 mb 0.00 in0.0 mm 0.00 in0.0 mm 0.00 in0.0 mm
09:08 PM 73.8°F23.2°C 51.6°F10.9°C 46% 0.9 mph SSE1.4 kmh SSE 1.6 mph2.6 kmh 30.15 in1021.0 mb 0.00 in0.0 mm 0.00 in0.0 mm 0.00 in0.0 mm
09:10 PM 73.6°F23.1°C 51.4°F10.8°C 46% 0.7 mph SSE1.1 kmh SSE 1.3 mph2.1 kmh 30.14 in1020.7 mb 0.00 in0.0 mm 0.00 in0.0 mm 0.00 in0.0 mm
09:12 PM 73.4°F23.0°C 52.0°F11.1°C 47% 0.9 mph SSW1.4 kmh SSW 1.6 mph2.6 kmh 30.15 in1021.0 mb 0.00 in0.0 mm 0.00 in0.0 mm 0.00 in0.0 mm
09:14 PM 73.2°F22.9°C 51.8°F11.0°C 47% 0.9 mph SSE1.4 kmh SSE 1.6 mph2.6 kmh 30.15 in1021.0 mb 0.00 in0.0 mm 0.00 in0.0 mm 0.00 in0.0 mm
09:17 PM 73.2°F22.9°C 51.8°F11.0°C 47% 0.9 mph S1.4 kmh S 1.3 mph2.1 kmh 30.15 in1021.0 mb 0.00 in0.0 mm 0.00 in0.0 mm 0.00 in0.0 mm
09:19 PM 73.2°F22.9°C 51.8°F11.0°C 47% 0.9 mph SSE1.4 kmh SSE 1.8 mph2.9 kmh 30.15 in1021.0 mb 0.00 in0.0 mm 0.00 in0.0 mm 0.00 in0.0 mm
09:21 PM 73.2°F22.9°C 51.8°F11.0°C 47% 1.1 mph SE1.8 kmh SE 2.7 mph4.3 kmh 30.15 in1021.0 mb 0.00 in0.0 mm 0.00 in0.0 mm 0.00 in0.0 mm
09:23 PM 73.0°F22.8°C 51.6°F10.9°C 47% 1.8 mph SSE2.9 kmh SSE 2.9 mph4.7 kmh 30.15 in1021.0 mb 0.00 in0.0 mm 0.00 in0.0 mm 0.00 in0.0 mm
09:25 PM 72.7°F22.6°C 51.8°F11.0°C 48% 1.8 mph SSE2.9 kmh SSE 3.8 mph6.1 kmh 30.15 in1021.0 mb 0.00 in0.0 mm 0.00 in0.0 mm 0.00 in0.0 mm
09:27 PM 72.5°F22.5°C 51.6°F10.9°C 48% 2.0 mph SSE3.2 kmh SSE 2.9 mph4.7 kmh 30.15 in1021.0 mb 0.00 in0.0 mm 0.00 in0.0 mm 0.00 in0.0 mm
09:30 PM 72.5°F22.5°C 51.6°F10.9°C 48% 2.0 mph SSE3.2 kmh SSE 2.5 mph4.0 kmh 30.15 in1021.0 mb 0.00 in0.0 mm 0.00 in0.0 mm 0.00 in0.0 mm
09:32 PM 72.3°F22.4°C 51.4°F10.8°C 48% 2.0 mph SSE3.2 kmh SSE 2.9 mph4.7 kmh 30.15 in1021.0 mb 0.00 in0.0 mm 0.00 in0.0 mm 0.00 in0.0 mm
09:34 PM 72.3°F22.4°C 51.4°F10.8°C 48% 2.0 mph ESE3.2 kmh ESE 4.0 mph6.4 kmh 30.15 in1021.0 mb 0.00 in0.0 mm 0.00 in0.0 mm 0.00 in0.0 mm
09:36 PM 72.3°F22.4°C 51.4°F10.8°C 48% 2.0 mph SE3.2 kmh SE 3.1 mph5.0 kmh 30.16 in1021.3 mb 0.00 in0.0 mm 0.00 in0.0 mm 0.00 in0.0 mm
09:38 PM 72.1°F22.3°C 51.4°F10.8°C 48% 2.0 mph S3.2 kmh S 2.9 mph4.7 kmh 30.15 in1021.0 mb 0.00 in0.0 mm 0.00 in0.0 mm 0.00 in0.0 mm
09:41 PM 72.3°F22.4°C 51.4°F10.8°C 48% 2.0 mph SE3.2 kmh SE 2.5 mph4.0 kmh 30.15 in1021.0 mb 0.00 in0.0 mm 0.00 in0.0 mm 0.00 in0.0 mm
09:43 PM 72.1°F22.3°C 51.4°F10.8°C 48% 2.0 mph SE3.2 kmh SE 2.5 mph4.0 kmh 30.15 in1021.0 mb 0.00 in0.0 mm 0.00 in0.0 mm 0.00 in0.0 mm
09:45 PM 72.1°F22.3°C 51.4°F10.8°C 48% 2.0 mph E3.2 kmh E 2.7 mph4.3 kmh 30.15 in1021.0 mb 0.00 in0.0 mm 0.00 in0.0 mm 0.00 in0.0 mm
09:47 PM 72.1°F22.3°C 51.4°F10.8°C 48% 1.1 mph SE1.8 kmh SE 2.2 mph3.5 kmh 30.15 in1021.0 mb 0.00 in0.0 mm 0.00 in0.0 mm 0.00 in0.0 mm
09:49 PM 72.1°F22.3°C 51.4°F10.8°C 48% 1.1 mph ESE1.8 kmh ESE 2.2 mph3.5 kmh 30.15 in1021.0 mb 0.00 in0.0 mm 0.00 in0.0 mm 0.00 in0.0 mm
09:52 PM 72.1°F22.3°C 51.4°F10.8°C 48% 1.6 mph SE2.6 kmh SE 3.6 mph5.8 kmh 30.15 in1021.0 mb 0.00 in0.0 mm 0.00 in0.0 mm 0.00 in0.0 mm
09:54 PM 72.1°F22.3°C 51.4°F10.8°C 48% 2.2 mph ESE3.5 kmh ESE 3.6 mph5.8 kmh 30.15 in1021.0 mb 0.00 in0.0 mm 0.00 in0.0 mm 0.00 in0.0 mm
09:56 PM 72.0°F22.2°C 51.3°F10.7°C 48% 2.5 mph SE4.0 kmh SE 4.0 mph6.4 kmh 30.15 in1021.0 mb 0.00 in0.0 mm 0.00 in0.0 mm 0.00 in0.0 mm
09:59 PM 71.8°F22.1°C 51.1°F10.6°C 48% 2.7 mph SE4.3 kmh SE 3.6 mph5.8 kmh 30.15 in1021.0 mb 0.00 in0.0 mm 0.00 in0.0 mm 0.00 in0.0 mm
10:01 PM 71.8°F22.1°C 51.6°F10.9°C 49% 2.5 mph ESE4.0 kmh ESE 3.6 mph5.8 kmh 30.15 in1021.0 mb 0.00 in0.0 mm 0.00 in0.0 mm 0.00 in0.0 mm
10:03 PM 71.4°F21.9°C 51.3°F10.7°C 49% 2.5 mph ESE4.0 kmh ESE 2.9 mph4.7 kmh 30.15 in1021.0 mb 0.00 in0.0 mm 0.00 in0.0 mm 0.00 in0.0 mm
10:05 PM 71.4°F21.9°C 51.3°F10.7°C 49% 2.9 mph ESE4.7 kmh ESE 4.0 mph6.4 kmh 30.15 in1021.0 mb 0.00 in0.0 mm 0.00 in0.0 mm 0.00 in0.0 mm
10:07 PM 71.2°F21.8°C 51.1°F10.6°C 49% 2.7 mph SE4.3 kmh SE 3.6 mph5.8 kmh 30.14 in1020.7 mb 0.00 in0.0 mm 0.00 in0.0 mm 0.00 in0.0 mm
10:10 PM 71.2°F21.8°C 51.1°F10.6°C 49% 2.5 mph SE4.0 kmh SE 3.4 mph5.5 kmh 30.14 in1020.7 mb 0.00 in0.0 mm 0.00 in0.0 mm 0.00 in0.0 mm
10:12 PM 71.2°F21.8°C 51.6°F10.9°C 50% 2.5 mph ESE4.0 kmh ESE 3.4 mph5.5 kmh 30.14 in1020.7 mb 0.00 in0.0 mm 0.00 in0.0 mm 0.00 in0.0 mm
10:14 PM 71.2°F21.8°C 51.6°F10.9°C 50% 2.7 mph SE4.3 kmh SE 3.4 mph5.5 kmh 30.14 in1020.7 mb 0.00 in0.0 mm 0.00 in0.0 mm 0.00 in0.0 mm
10:16 PM 70.9°F21.6°C 51.3°F10.7°C 50% 2.7 mph SE4.3 kmh SE 3.8 mph6.1 kmh 30.14 in1020.7 mb 0.00 in0.0 mm 0.00 in0.0 mm 0.00 in0.0 mm
10:18 PM 70.9°F21.6°C 51.3°F10.7°C 50% 2.5 mph ESE4.0 kmh ESE 2.9 mph4.7 kmh 30.14 in1020.7 mb 0.00 in0.0 mm 0.00 in0.0 mm 0.00 in0.0 mm
10:21 PM 70.9°F21.6°C 51.3°F10.7°C 50% 2.7 mph ESE4.3 kmh ESE 3.8 mph6.1 kmh 30.14 in1020.7 mb 0.00 in0.0 mm 0.00 in0.0 mm 0.00 in0.0 mm
10:23 PM 70.9°F21.6°C 51.3°F10.7°C 50% 3.4 mph ESE5.5 kmh ESE 4.3 mph6.9 kmh 30.14 in1020.7 mb 0.00 in0.0 mm 0.00 in0.0 mm 0.00 in0.0 mm
10:25 PM 70.9°F21.6°C 51.3°F10.7°C 50% 2.9 mph SE4.7 kmh SE 3.6 mph5.8 kmh 30.14 in1020.7 mb 0.00 in0.0 mm 0.00 in0.0 mm 0.00 in0.0 mm
10:27 PM 70.7°F21.5°C 51.1°F10.6°C 50% 2.5 mph SE4.0 kmh SE 3.1 mph5.0 kmh 30.14 in1020.7 mb 0.00 in0.0 mm 0.00 in0.0 mm 0.00 in0.0 mm
10:29 PM 70.7°F21.5°C 51.1°F10.6°C 50% 2.5 mph SE4.0 kmh SE 2.7 mph4.3 kmh 30.14 in1020.7 mb 0.00 in0.0 mm 0.00 in0.0 mm 0.00 in0.0 mm
10:32 PM 70.7°F21.5°C 51.1°F10.6°C 50% 2.5 mph SE4.0 kmh SE 3.8 mph6.1 kmh 30.14 in1020.7 mb 0.00 in0.0 mm 0.00 in0.0 mm 0.00 in0.0 mm
10:34 PM 70.7°F21.5°C 51.1°F10.6°C 50% 2.0 mph SE3.2 kmh SE 3.6 mph5.8 kmh 30.14 in1020.7 mb 0.00 in0.0 mm 0.00 in0.0 mm 0.00 in0.0 mm
10:36 PM 70.7°F21.5°C 51.1°F10.6°C 50% 2.2 mph ESE3.5 kmh ESE 2.9 mph4.7 kmh 30.14 in1020.7 mb 0.00 in0.0 mm 0.00 in0.0 mm 0.00 in0.0 mm
10:38 PM 70.7°F21.5°C 51.1°F10.6°C 50% 2.0 mph ESE3.2 kmh ESE 2.5 mph4.0 kmh 30.14 in1020.7 mb 0.00 in0.0 mm 0.00 in0.0 mm 0.00 in0.0 mm
10:41 PM 70.7°F21.5°C 51.1°F10.6°C 50% 2.0 mph SE3.2 kmh SE 2.9 mph4.7 kmh 30.14 in1020.7 mb 0.00 in0.0 mm 0.00 in0.0 mm 0.00 in0.0 mm
10:43 PM 70.5°F21.4°C 50.9°F10.5°C 50% 1.8 mph ESE2.9 kmh ESE 2.0 mph3.2 kmh 30.15 in1021.0 mb 0.00 in0.0 mm 0.00 in0.0 mm 0.00 in0.0 mm
10:45 PM 70.5°F21.4°C 50.9°F10.5°C 50% 2.0 mph SE3.2 kmh SE 3.1 mph5.0 kmh 30.15 in1021.0 mb 0.00 in0.0 mm 0.00 in0.0 mm 0.00 in0.0 mm
10:47 PM 70.5°F21.4°C 50.9°F10.5°C 50% 1.8 mph SE2.9 kmh SE 2.5 mph4.0 kmh 30.14 in1020.7 mb 0.00 in0.0 mm 0.00 in0.0 mm 0.00 in0.0 mm
10:49 PM 70.5°F21.4°C 50.9°F10.5°C 50% 1.6 mph SSE2.6 kmh SSE 1.6 mph2.6 kmh 30.14 in1020.7 mb 0.00 in0.0 mm 0.00 in0.0 mm 0.00 in0.0 mm
10:51 PM 70.5°F21.4°C 50.9°F10.5°C 50% 2.5 mph ESE4.0 kmh ESE 4.0 mph6.4 kmh 30.15 in1021.0 mb 0.00 in0.0 mm 0.00 in0.0 mm 0.00 in0.0 mm
10:53 PM 70.3°F21.3°C 50.9°F10.5°C 50% 2.0 mph SSE3.2 kmh SSE 2.9 mph4.7 kmh 30.15 in1021.0 mb 0.00 in0.0 mm 0.00 in0.0 mm 0.00 in0.0 mm
10:56 PM 70.0°F21.1°C 51.1°F10.6°C 51% 2.0 mph SE3.2 kmh SE 3.1 mph5.0 kmh 30.15 in1021.0 mb 0.00 in0.0 mm 0.00 in0.0 mm 0.00 in0.0 mm
10:58 PM 70.0°F21.1°C 51.1°F10.6°C 51% 1.6 mph SSE2.6 kmh SSE 2.0 mph3.2 kmh 30.15 in1021.0 mb 0.00 in0.0 mm 0.00 in0.0 mm 0.00 in0.0 mm
11:00 PM 70.0°F21.1°C 51.1°F10.6°C 51% 1.8 mph SSE2.9 kmh SSE 2.0 mph3.2 kmh 30.15 in1021.0 mb 0.00 in0.0 mm 0.00 in0.0 mm 0.00 in0.0 mm
11:02 PM 70.0°F21.1°C 51.1°F10.6°C 51% 1.8 mph ESE2.9 kmh ESE 2.5 mph4.0 kmh 30.14 in1020.7 mb 0.00 in0.0 mm 0.00 in0.0 mm 0.00 in0.0 mm
11:05 PM 69.8°F21.0°C 50.9°F10.5°C 51% 2.0 mph SSE3.2 kmh SSE 2.5 mph4.0 kmh 30.14 in1020.7 mb 0.00 in0.0 mm 0.00 in0.0 mm 0.00 in0.0 mm
11:07 PM 69.8°F21.0°C 50.9°F10.5°C 51% 1.3 mph SSE2.1 kmh SSE 1.6 mph2.6 kmh 30.15 in1021.0 mb 0.00 in0.0 mm 0.00 in0.0 mm 0.00 in0.0 mm
11:09 PM 69.6°F20.9°C 50.7°F10.4°C 51% 1.3 mph SSE2.1 kmh SSE 2.0 mph3.2 kmh 30.15 in1021.0 mb 0.00 in0.0 mm 0.00 in0.0 mm 0.00 in0.0 mm
11:11 PM 69.6°F20.9°C 50.7°F10.4°C 51% 1.1 mph SE1.8 kmh SE 1.8 mph2.9 kmh 30.15 in1021.0 mb 0.00 in0.0 mm 0.00 in0.0 mm 0.00 in0.0 mm
11:13 PM 69.6°F20.9°C 50.7°F10.4°C 51% 1.1 mph SSE1.8 kmh SSE 2.5 mph4.0 kmh 30.15 in1021.0 mb 0.00 in0.0 mm 0.00 in0.0 mm 0.00 in0.0 mm
11:16 PM 69.6°F20.9°C 50.7°F10.4°C 51% 1.3 mph SSE2.1 kmh SSE 2.0 mph3.2 kmh 30.15 in1021.0 mb 0.00 in0.0 mm 0.00 in0.0 mm 0.00 in0.0 mm
11:18 PM 69.6°F20.9°C 50.7°F10.4°C 51% 1.8 mph SE2.9 kmh SE 2.7 mph4.3 kmh 30.14 in1020.7 mb 0.00 in0.0 mm 0.00 in0.0 mm 0.00 in0.0 mm
11:20 PM 69.4°F20.8°C 50.5°F10.3°C 51% 2.5 mph SE4.0 kmh SE 3.8 mph6.1 kmh 30.15 in1021.0 mb 0.00 in0.0 mm 0.00 in0.0 mm 0.00 in0.0 mm
11:22 PM 69.4°F20.8°C 51.1°F10.6°C 52% 2.5 mph SE4.0 kmh SE 3.1 mph5.0 kmh 30.15 in1021.0 mb 0.00 in0.0 mm 0.00 in0.0 mm 0.00 in0.0 mm
11:24 PM 69.4°F20.8°C 51.1°F10.6°C 52% 2.2 mph ESE3.5 kmh ESE 2.5 mph4.0 kmh 30.15 in1021.0 mb 0.00 in0.0 mm 0.00 in0.0 mm 0.00 in0.0 mm
11:27 PM 69.4°F20.8°C 50.5°F10.3°C 51% 2.2 mph ESE3.5 kmh ESE 3.4 mph5.5 kmh 30.15 in1021.0 mb 0.00 in0.0 mm 0.00 in0.0 mm 0.00 in0.0 mm
11:29 PM 69.6°F20.9°C 50.7°F10.4°C 51% 2.5 mph ESE4.0 kmh ESE 3.1 mph5.0 kmh 30.15 in1021.0 mb 0.00 in0.0 mm 0.00 in0.0 mm 0.00 in0.0 mm
11:31 PM 69.6°F20.9°C 50.7°F10.4°C 51% 1.3 mph S2.1 kmh S 1.3 mph2.1 kmh 30.15 in1021.0 mb 0.00 in0.0 mm 0.00 in0.0 mm 0.00 in0.0 mm
11:33 PM 69.6°F20.9°C 50.7°F10.4°C 51% 1.8 mph SE2.9 kmh SE 2.5 mph4.0 kmh 30.15 in1021.0 mb 0.00 in0.0 mm 0.00 in0.0 mm 0.00 in0.0 mm
11:36 PM 69.6°F20.9°C 50.7°F10.4°C 51% 2.0 mph SSE3.2 kmh SSE 3.1 mph5.0 kmh 30.15 in1021.0 mb 0.00 in0.0 mm 0.00 in0.0 mm 0.00 in0.0 mm
11:38 PM 69.4°F20.8°C 50.5°F10.3°C 51% 1.6 mph SE2.6 kmh SE 2.5 mph4.0 kmh 30.15 in1021.0 mb 0.00 in0.0 mm 0.00 in0.0 mm 0.00 in0.0 mm
11:40 PM 69.6°F20.9°C 50.7°F10.4°C 51% 1.6 mph SE2.6 kmh SE 2.2 mph3.5 kmh 30.15 in1021.0 mb 0.00 in0.0 mm 0.00 in0.0 mm 0.00 in0.0 mm
11:42 PM 69.6°F20.9°C 50.7°F10.4°C 51% 1.6 mph ESE2.6 kmh ESE 2.5 mph4.0 kmh 30.15 in1021.0 mb 0.00 in0.0 mm 0.00 in0.0 mm 0.00 in0.0 mm
11:44 PM 69.6°F20.9°C 50.7°F10.4°C 51% 2.0 mph ESE3.2 kmh ESE 2.9 mph4.7 kmh 30.14 in1020.7 mb 0.00 in0.0 mm 0.00 in0.0 mm 0.00 in0.0 mm
11:46 PM 69.6°F20.9°C 50.7°F10.4°C 51% 2.0 mph SE3.2 kmh SE 2.7 mph4.3 kmh 30.15 in1021.0 mb 0.00 in0.0 mm 0.00 in0.0 mm 0.00 in0.0 mm
11:48 PM 69.6°F20.9°C 50.7°F10.4°C 51% 1.3 mph SSE2.1 kmh SSE 1.6 mph2.6 kmh 30.15 in1021.0 mb 0.00 in0.0 mm 0.00 in0.0 mm 0.00 in0.0 mm
11:50 PM 69.8°F21.0°C 50.9°F10.5°C 51% 0.9 mph SSE1.4 kmh SSE 0.9 mph1.4 kmh 30.15 in1021.0 mb 0.00 in0.0 mm 0.00 in0.0 mm 0.00 in0.0 mm
11:53 PM 69.8°F21.0°C 50.9°F10.5°C 51% 0.9 mph SSE1.4 kmh SSE 2.0 mph3.2 kmh 30.15 in1021.0 mb 0.00 in0.0 mm 0.00 in0.0 mm 0.00 in0.0 mm
11:55 PM 69.8°F21.0°C 50.9°F10.5°C 51% 0.7 mph SSE1.1 kmh SSE 1.3 mph2.1 kmh 30.15 in1021.0 mb 0.00 in0.0 mm 0.00 in0.0 mm 0.00 in0.0 mm
11:57 PM 69.6°F20.9°C 50.7°F10.4°C 51% 0.7 mph SSE1.1 kmh SSE 2.0 mph3.2 kmh 30.14 in1020.7 mb 0.00 in0.0 mm 0.00 in0.0 mm 0.00 in0.0 mm
11:59 PM 69.6°F20.9°C 51.3°F10.7°C 52% 0.7 mph SE1.1 kmh SE 1.3 mph2.1 kmh 30.15 in1021.0 mb 0.00 in0.0 mm 0.00 in0.0 mm 0.00 in0.0 mm